Observation data for Clyde on 04/22/2019      Previous  Date       Current Mesonet Observations  Soil Data  Daily Summary Page  Observations in Plain Language
KCL2 220500Z 17012KT 21/15 A2992 RMK A01 T02050151  RH  071%=      5-min Rain = 0
KCL2 220501Z 17012KT 21/15 A2992 RMK A01 T02050152  RH  071%=      5-min Rain = 0
KCL2 220502Z 17013KT 21/15 A2992 RMK A01 T02050152  RH  072%=      5-min Rain = 0
KCL2 220503Z 17012KT 20/15 A2992 RMK A01 T02040152  RH  072%=      5-min Rain = 0
KCL2 220504Z 17011KT 20/15 A2992 RMK A01 T02040152  RH  072%=      5-min Rain = 0
KCL2 220505Z 17013KT 20/15 A2992 RMK A01 T02040152  RH  072%=      5-min Rain = 0
KCL2 220506Z 17013G18KT 20/15 A2992 RMK A01 T02040152  RH  072%=      5-min Rain = 0
KCL2 220507Z 17013KT 20/15 A2992 RMK A01 T02040152  RH  072%=      5-min Rain = 0
KCL2 220508Z 17014KT 20/15 A2992 RMK A01 T02040152  RH  072%=      5-min Rain = 0
KCL2 220509Z 17014KT 20/15 A2992 RMK A01 T02040152  RH  072%=      5-min Rain = 0
KCL2 220510Z 17015KT 20/15 A2992 RMK A01 T02040152  RH  072%=      5-min Rain = 0
KCL2 220511Z 17015KT 21/15 A2992 RMK A01 T02050152  RH  072%=      5-min Rain = 0
KCL2 220512Z 17013G18KT 21/15 A2992 RMK A01 T02050152  RH  072%=      5-min Rain = 0
KCL2 220513Z 17015G20KT 21/15 A2992 RMK A01 T02050152  RH  072%=      5-min Rain = 0
KCL2 220514Z 17015KT 21/15 A2992 RMK A01 T02050152  RH  072%=      5-min Rain = 0
KCL2 220515Z 17016KT 21/15 A2992 RMK A01 T02050152  RH  072%=      5-min Rain = 0
KCL2 220516Z 17014G19KT 21/15 A2992 RMK A01 T02050152  RH  072%=      5-min Rain = 0
KCL2 220517Z 17017KT 21/15 A2992 RMK A01 T02050152  RH  072%=      5-min Rain = 0
KCL2 220518Z 17014G19KT 21/15 A2992 RMK A01 T02050152  RH  072%=      5-min Rain = 0
KCL2 220519Z 17015KT 21/15 A2992 RMK A01 T02050152  RH  072%=      5-min Rain = 0
KCL2 220520Z 17015G20KT 20/15 A2992 RMK A01 T02040152  RH  072%=      5-min Rain = 0
KCL2 220521Z 17014KT 20/15 A2992 RMK A01 T02040152  RH  072%=      5-min Rain = 0
KCL2 220522Z 17015KT 20/15 A2992 RMK A01 T02040153  RH  073%=      5-min Rain = 0
KCL2 220523Z 17015KT 20/15 A2992 RMK A01 T02030153  RH  073%=      5-min Rain = 0
KCL2 220524Z 17014G20KT 20/15 A2992 RMK A01 T02040153  RH  073%=      5-min Rain = 0
KCL2 220525Z 18016KT 20/15 A2992 RMK A01 T02030153  RH  073%=      5-min Rain = 0
KCL2 220526Z 17015KT 20/15 A2991 RMK A01 T02030153  RH  073%=      5-min Rain = 0
KCL2 220527Z 18014G19KT 20/15 A2992 RMK A01 T02030153  RH  073%=      5-min Rain = 0
KCL2 220528Z 17018KT 20/15 A2992 RMK A01 T02030153  RH  073%=      5-min Rain = 0
KCL2 220529Z 18015G20KT 20/15 A2992 RMK A01 T02030153  RH  073%=      5-min Rain = 0
KCL2 220530Z 18016KT 20/15 A2992 RMK A01 T02030153  RH  073%=      5-min Rain = 0
KCL2 220531Z 18016G23KT 20/15 A2992 RMK A01 T02030154  RH  073%=      5-min Rain = 0
KCL2 220532Z 18015G20KT 20/15 A2992 RMK A01 T02030154  RH  073%=      5-min Rain = 0
KCL2 220533Z 18014KT 20/15 A2992 RMK A01 T02030154  RH  073%=      5-min Rain = 0
KCL2 220534Z 18012KT 20/15 A2992 RMK A01 T02020154  RH  074%=      5-min Rain = 0
KCL2 220535Z 17014KT 20/15 A2992 RMK A01 T02020154  RH  074%=      5-min Rain = 0
KCL2 220536Z 18013KT 20/15 A2992 RMK A01 T02020154  RH  074%=      5-min Rain = 0
KCL2 220537Z 18015KT 20/15 A2992 RMK A01 T02010154  RH  074%=      5-min Rain = 0
KCL2 220538Z 18015KT 20/15 A2992 RMK A01 T02010154  RH  074%=      5-min Rain = 0
KCL2 220539Z 18014G21KT 20/15 A2992 RMK A01 T02010154  RH  074%=      5-min Rain = 0
KCL2 220540Z 18015KT 20/15 A2992 RMK A01 T02010154  RH  075%=      5-min Rain = 0
KCL2 220541Z 18017KT 20/15 A2992 RMK A01 T02000154  RH  075%=      5-min Rain = 0
KCL2 220542Z 18015G22KT 20/15 A2992 RMK A01 T02000154  RH  075%=      5-min Rain = 0
KCL2 220543Z 18016KT 20/16 A2992 RMK A01 T02010155  RH  075%=      5-min Rain = 0
KCL2 220544Z 17014KT 20/16 A2992 RMK A01 T02000155  RH  075%=      5-min Rain = 0
KCL2 220545Z 18016G22KT 20/16 A2992 RMK A01 T02000155  RH  075%=      5-min Rain = 0
KCL2 220546Z 18016G22KT 20/16 A2992 RMK A01 T02000155  RH  075%=      5-min Rain = 0
KCL2 220547Z 18017G22KT 20/16 A2992 RMK A01 T02000155  RH  075%=      5-min Rain = 0
KCL2 220548Z 18015KT 20/16 A2992 RMK A01 T02000155  RH  075%=      5-min Rain = 0
KCL2 220549Z 18017KT 20/16 A2992 RMK A01 T01990155  RH  076%=      5-min Rain = 0
KCL2 220550Z 18016G21KT 20/16 A2992 RMK A01 T01990155  RH  076%=      5-min Rain = 0
KCL2 220551Z 17016G21KT 20/16 A2992 RMK A01 T01990156  RH  076%=      5-min Rain = 0
KCL2 220552Z 18018KT 20/16 A2992 RMK A01 T01990156  RH  076%=      5-min Rain = 0
KCL2 220553Z 18015KT 20/16 A2992 RMK A01 T01990156  RH  076%=      5-min Rain = 0
KCL2 220554Z 18015KT 20/16 A2992 RMK A01 T01990156  RH  076%=      5-min Rain = 0
KCL2 220555Z 18018KT 20/16 A2992 RMK A01 T01980156  RH  076%=      5-min Rain = 0
KCL2 220556Z 18015G22KT 20/16 A2992 RMK A01 T01980156  RH  077%=      5-min Rain = 0
KCL2 220557Z 18013G19KT 20/16 A2992 RMK A01 T01980156  RH  077%=      5-min Rain = 0
KCL2 220558Z 18015KT 20/16 A2992 RMK A01 T01970156  RH  077%=      5-min Rain = 0
KCL2 220559Z 18016G21KT 20/16 A2992 RMK A01 T01970157  RH  077%=      5-min Rain = 0
KCL2 220600Z 18018KT 20/16 A2992 RMK A01 T01970157  RH  077%=      5-min Rain = 0
KCL2 220601Z 18019G24KT 20/16 A2992 RMK A01 T01980157  RH  077%=      5-min Rain = 0
KCL2 220602Z 18016KT 20/16 A2992 RMK A01 T01990158  RH  077%=      5-min Rain = 0
KCL2 220603Z 17016G21KT 20/16 A2992 RMK A01 T01980158  RH  077%=      5-min Rain = 0
KCL2 220604Z 18014G19KT 20/16 A2992 RMK A01 T01980158  RH  078%=      5-min Rain = 0
KCL2 220605Z 17018G23KT 20/16 A2992 RMK A01 T01980158  RH  078%=      5-min Rain = 0
KCL2 220606Z 17018KT 20/16 A2992 RMK A01 T01970158  RH  078%=      5-min Rain = 0
KCL2 220607Z 17018G24KT 20/16 A2992 RMK A01 T01970158  RH  078%=      5-min Rain = 0
KCL2 220608Z 18016G21KT 20/16 A2992 RMK A01 T01980158  RH  078%=      5-min Rain = 0
KCL2 220609Z 18016G22KT 20/16 A2992 RMK A01 T01980159  RH  078%=      5-min Rain = 0
KCL2 220610Z 18017KT 20/16 A2992 RMK A01 T01980160  RH  078%=      5-min Rain = 0
KCL2 220611Z 18015G20KT 20/16 A2992 RMK A01 T01980159  RH  078%=      5-min Rain = 0
KCL2 220612Z 17019G24KT 20/16 A2992 RMK A01 T01970160  RH  079%=      5-min Rain = 0
KCL2 220613Z 18017G24KT 20/16 A2992 RMK A01 T01970159  RH  079%=      5-min Rain = 0
KCL2 220614Z 18017KT 20/16 A2992 RMK A01 T01970160  RH  079%=      5-min Rain = 0
KCL2 220615Z 18017KT 20/16 A2992 RMK A01 T01970160  RH  079%=      5-min Rain = 0
KCL2 220616Z 18018G23KT 20/16 A2992 RMK A01 T01970161  RH  079%=      5-min Rain = 0
KCL2 220617Z 18016G21KT 20/16 A2992 RMK A01 T01970160  RH  079%=      5-min Rain = 0
KCL2 220618Z 18014KT 20/16 A2992 RMK A01 T01960160  RH  080%=      5-min Rain = 0
KCL2 220619Z 17015G20KT 20/16 A2992 RMK A01 T01960160  RH  080%=      5-min Rain = 0
KCL2 220620Z 18016G22KT 20/16 A2992 RMK A01 T01960161  RH  080%=      5-min Rain = 0
KCL2 220621Z 18017G22KT 20/16 A2992 RMK A01 T01960161  RH  080%=      5-min Rain = 0
KCL2 220622Z 17017G22KT 20/16 A2992 RMK A01 T01960161  RH  080%=      5-min Rain = 0
KCL2 220623Z 17015KT 20/16 A2992 RMK A01 T01960161  RH  080%=      5-min Rain = 0
KCL2 220624Z 18017KT 20/16 A2992 RMK A01 T01950161  RH  081%=      5-min Rain = 0
KCL2 220625Z 17016G21KT 20/16 A2992 RMK A01 T01950162  RH  081%=      5-min Rain = 0
KCL2 220626Z 18019KT 20/16 A2991 RMK A01 T01950161  RH  081%=      5-min Rain = 0
KCL2 220627Z 17016KT 20/16 A2992 RMK A01 T01950162  RH  081%=      5-min Rain = 0
KCL2 220628Z 17018KT 20/16 A2992 RMK A01 T01950162  RH  081%=      5-min Rain = 0
KCL2 220629Z 18019KT 20/16 A2992 RMK A01 T01950162  RH  081%=      5-min Rain = 0
KCL2 220630Z 18018KT 20/16 A2992 RMK A01 T01950162  RH  081%=      5-min Rain = 0
KCL2 220631Z 17020KT 20/16 A2992 RMK A01 T01950162  RH  081%=      5-min Rain = 0
KCL2 220632Z 17019KT 20/16 A2991 RMK A01 T01950162  RH  081%=      5-min Rain = 0
KCL2 220633Z 17015G20KT 20/16 A2991 RMK A01 T01950162  RH  081%=      5-min Rain = 0
KCL2 220634Z 18015KT 20/16 A2992 RMK A01 T01950162  RH  081%=      5-min Rain = 0
KCL2 220635Z 17017KT 20/16 A2991 RMK A01 T01950162  RH  081%=      5-min Rain = 0
KCL2 220636Z 17015KT 20/16 A2991 RMK A01 T01950162  RH  082%=      5-min Rain = 0
KCL2 220637Z 17016KT 19/16 A2991 RMK A01 T01940162  RH  082%=      5-min Rain = 0
KCL2 220638Z 17015G20KT 19/16 A2991 RMK A01 T01940162  RH  082%=      5-min Rain = 0
KCL2 220639Z 17014G20KT 19/16 A2991 RMK A01 T01940162  RH  082%=      5-min Rain = 0
KCL2 220640Z 17016G22KT 19/16 A2991 RMK A01 T01930162  RH  082%=      5-min Rain = 0
KCL2 220641Z 17017KT 19/16 A2991 RMK A01 T01930162  RH  082%=      5-min Rain = 0
KCL2 220642Z 17017KT 19/16 A2991 RMK A01 T01930162  RH  082%=      5-min Rain = 0
KCL2 220643Z 17017G24KT 19/16 A2991 RMK A01 T01930162  RH  082%=      5-min Rain = 0
KCL2 220644Z 17018G24KT 19/16 A2991 RMK A01 T01930163  RH  083%=      5-min Rain = 0
KCL2 220645Z 17017KT 19/16 A2991 RMK A01 T01930163  RH  083%=      5-min Rain = 0
KCL2 220646Z 17017KT 19/16 A2991 RMK A01 T01930163  RH  083%=      5-min Rain = 0
KCL2 220647Z 18016KT 19/16 A2991 RMK A01 T01930163  RH  083%=      5-min Rain = 0
KCL2 220648Z 17016KT 19/16 A2991 RMK A01 T01920163  RH  083%=      5-min Rain = 0
KCL2 220649Z 17018KT 19/16 A2991 RMK A01 T01920163  RH  083%=      5-min Rain = 0
KCL2 220650Z 17017KT 19/16 A2991 RMK A01 T01920163  RH  083%=      5-min Rain = 0
KCL2 220651Z 17020G26KT 19/16 A2991 RMK A01 T01920163  RH  083%=      5-min Rain = 0
KCL2 220652Z 17018KT 19/16 A2991 RMK A01 T01920163  RH  083%=      5-min Rain = 0
KCL2 220653Z 18018G24KT 19/16 A2991 RMK A01 T01920163  RH  083%=      5-min Rain = 0
KCL2 220654Z 17020G25KT 19/16 A2991 RMK A01 T01920163  RH  083%=      5-min Rain = 0
KCL2 220655Z 18018KT 19/16 A2991 RMK A01 T01920163  RH  083%=      5-min Rain = 0
KCL2 220656Z 17017KT 19/16 A2991 RMK A01 T01920163  RH  083%=      5-min Rain = 0
KCL2 220657Z 17016G21KT 19/16 A2991 RMK A01 T01910163  RH  083%=      5-min Rain = 0
KCL2 220658Z 17017KT 19/16 A2991 RMK A01 T01910162  RH  084%=      5-min Rain = 0
KCL2 220659Z 17017G22KT 19/16 A2991 RMK A01 T01910163  RH  084%=      5-min Rain = 0
KCL2 220700Z 17017G22KT 19/16 A2991 RMK A01 T01910162  RH  084%=      5-min Rain = 0
KCL2 220701Z 17016KT 19/16 A2991 RMK A01 T01910163  RH  084%=      5-min Rain = 0
KCL2 220702Z 17015KT 19/16 A2991 RMK A01 T01900162  RH  084%=      5-min Rain = 0
KCL2 220703Z 17018G23KT 19/16 A2991 RMK A01 T01900163  RH  084%=      5-min Rain = 0
KCL2 220704Z 17016KT 19/16 A2991 RMK A01 T01900162  RH  084%=      5-min Rain = 0
KCL2 220705Z 17015G20KT 19/16 A2991 RMK A01 T01900162  RH  084%=      5-min Rain = 0
KCL2 220706Z 17016G21KT 19/16 A2991 RMK A01 T01890162  RH  084%=      5-min Rain = 0
KCL2 220707Z 17014KT 19/16 A2991 RMK A01 T01890162  RH  084%=      5-min Rain = 0
KCL2 220708Z 17017G22KT 19/16 A2991 RMK A01 T01890162  RH  084%=      5-min Rain = 0
KCL2 220709Z 17015G20KT 19/16 A2991 RMK A01 T01890162  RH  084%=      5-min Rain = 0
KCL2 220710Z 17013KT 19/16 A2991 RMK A01 T01880162  RH  084%=      5-min Rain = 0
KCL2 220711Z 17018G23KT 19/16 A2991 RMK A01 T01880162  RH  085%=      5-min Rain = 0
KCL2 220712Z 17015KT 19/16 A2991 RMK A01 T01880161  RH  085%=      5-min Rain = 0
KCL2 220713Z 17016KT 19/16 A2991 RMK A01 T01880161  RH  085%=      5-min Rain = 0
KCL2 220714Z 17014KT 19/16 A2991 RMK A01 T01880161  RH  085%=      5-min Rain = 0
KCL2 220715Z 18015KT 19/16 A2991 RMK A01 T01880161  RH  085%=      5-min Rain = 0
KCL2 220716Z 17017G22KT 19/16 A2991 RMK A01 T01870161  RH  085%=      5-min Rain = 0
KCL2 220717Z 17015KT 19/16 A2991 RMK A01 T01870161  RH  085%=      5-min Rain = 0
KCL2 220718Z 17015KT 19/16 A2991 RMK A01 T01870161  RH  085%=      5-min Rain = 0
KCL2 220719Z 17016G23KT 19/16 A2991 RMK A01 T01870161  RH  085%=      5-min Rain = 0
KCL2 220720Z 17017G22KT 19/16 A2991 RMK A01 T01870161  RH  085%=      5-min Rain = 0
KCL2 220721Z 17017G22KT 19/16 A2991 RMK A01 T01870161  RH  085%=      5-min Rain = 0
KCL2 220722Z 17017KT 19/16 A2991 RMK A01 T01870161  RH  085%=      5-min Rain = 0
KCL2 220723Z 17016G22KT 19/16 A2991 RMK A01 T01870161  RH  085%=      5-min Rain = 0
KCL2 220724Z 17016KT 19/16 A2991 RMK A01 T01870161  RH  085%=      5-min Rain = 0
KCL2 220725Z 17015KT 19/16 A2991 RMK A01 T01860161  RH  085%=      5-min Rain = 0
KCL2 220726Z 17015KT 19/16 A2991 RMK A01 T01860161  RH  085%=      5-min Rain = 0
KCL2 220727Z 17019G25KT 19/16 A2991 RMK A01 T01860161  RH  085%=      5-min Rain = 0
KCL2 220728Z 17017G24KT 19/16 A2991 RMK A01 T01860160  RH  085%=      5-min Rain = 0
KCL2 220729Z 17018G23KT 19/16 A2991 RMK A01 T01860160  RH  085%=      5-min Rain = 0
KCL2 220730Z 17018KT 19/16 A2991 RMK A01 T01860160  RH  085%=      5-min Rain = 0
KCL2 220731Z 17015G20KT 19/16 A2991 RMK A01 T01860160  RH  085%=      5-min Rain = 0
KCL2 220732Z 17013G18KT 19/16 A2991 RMK A01 T01860160  RH  085%=      5-min Rain = 0
KCL2 220733Z 17016KT 19/16 A2991 RMK A01 T01860160  RH  085%=      5-min Rain = 0
KCL2 220734Z 17016KT 19/16 A2991 RMK A01 T01850160  RH  085%=      5-min Rain = 0
KCL2 220735Z 17017KT 19/16 A2991 RMK A01 T01850160  RH  085%=      5-min Rain = 0
KCL2 220736Z 17016KT 19/16 A2991 RMK A01 T01850160  RH  085%=      5-min Rain = 0
KCL2 220737Z 17018KT 19/16 A2991 RMK A01 T01850160  RH  085%=      5-min Rain = 0
KCL2 220738Z 17019KT 19/16 A2991 RMK A01 T01850160  RH  085%=      5-min Rain = 0
KCL2 220739Z 17018KT 19/16 A2991 RMK A01 T01850160  RH  085%=      5-min Rain = 0
KCL2 220740Z 17018G26KT 19/16 A2991 RMK A01 T01850159  RH  085%=      5-min Rain = 0
KCL2 220741Z 17018G26KT 19/16 A2991 RMK A01 T01850159  RH  085%=      5-min Rain = 0
KCL2 220742Z 17015KT 19/16 A2991 RMK A01 T01850159  RH  085%=      5-min Rain = 0
KCL2 220743Z 17015G20KT 18/16 A2991 RMK A01 T01840159  RH  085%=      5-min Rain = 0
KCL2 220744Z 17015KT 18/16 A2991 RMK A01 T01840159  RH  085%=      5-min Rain = 0
KCL2 220745Z 17016KT 18/16 A2991 RMK A01 T01840159  RH  086%=      5-min Rain = 0
KCL2 220746Z 17014G19KT 18/16 A2991 RMK A01 T01830159  RH  086%=      5-min Rain = 0
KCL2 220747Z 17011KT 18/16 A2991 RMK A01 T01830159  RH  086%=      5-min Rain = 0
KCL2 220748Z 17015G22KT 18/16 A2991 RMK A01 T01820158  RH  086%=      5-min Rain = 0
KCL2 220749Z 17013KT 18/16 A2991 RMK A01 T01820158  RH  086%=      5-min Rain = 0
KCL2 220750Z 17014KT 18/16 A2991 RMK A01 T01820158  RH  086%=      5-min Rain = 0
KCL2 220751Z 17013KT 18/16 A2991 RMK A01 T01810158  RH  086%=      5-min Rain = 0
KCL2 220752Z 17014G19KT 18/16 A2991 RMK A01 T01810158  RH  086%=      5-min Rain = 0
KCL2 220753Z 17016G21KT 18/16 A2991 RMK A01 T01810158  RH  086%=      5-min Rain = 0
KCL2 220754Z 17014KT 18/16 A2991 RMK A01 T01810158  RH  086%=      5-min Rain = 0
KCL2 220755Z 17017G22KT 18/16 A2991 RMK A01 T01810158  RH  086%=      5-min Rain = 0
KCL2 220756Z 17015G20KT 18/16 A2991 RMK A01 T01810158  RH  086%=      5-min Rain = 0
KCL2 220757Z 17013KT 18/16 A2991 RMK A01 T01810158  RH  086%=      5-min Rain = 0
KCL2 220758Z 17015KT 18/16 A2991 RMK A01 T01810158  RH  086%=      5-min Rain = 0
KCL2 220759Z 17017KT 18/16 A2991 RMK A01 T01810158  RH  087%=      5-min Rain = 0
KCL2 220800Z 17014G19KT 18/16 A2991 RMK A01 T01810158  RH  086%=      5-min Rain = 0
KCL2 220801Z 17014KT 18/16 A2991 RMK A01 T01800158  RH  087%=      5-min Rain = 0
KCL2 220802Z 16015KT 18/16 A2991 RMK A01 T01800158  RH  086%=      5-min Rain = 0
KCL2 220803Z 17014KT 18/16 A2991 RMK A01 T01810158  RH  086%=      5-min Rain = 0
KCL2 220804Z 17015KT 18/16 A2991 RMK A01 T01800158  RH  086%=      5-min Rain = 0
KCL2 220805Z 16018G23KT 18/16 A2991 RMK A01 T01810158  RH  087%=      5-min Rain = 0
KCL2 220806Z 17016KT 18/16 A2991 RMK A01 T01800158  RH  086%=      5-min Rain = 0
KCL2 220807Z 17013G19KT 18/16 A2991 RMK A01 T01800157  RH  086%=      5-min Rain = 0
KCL2 220808Z 17015G20KT 18/16 A2991 RMK A01 T01800157  RH  086%=      5-min Rain = 0
KCL2 220809Z 17014G20KT 18/16 A2991 RMK A01 T01800157  RH  087%=      5-min Rain = 0
KCL2 220810Z 17015KT 18/16 A2991 RMK A01 T01800157  RH  087%=      5-min Rain = 0
KCL2 220811Z 16016KT 18/16 A2991 RMK A01 T01800157  RH  087%=      5-min Rain = 0
KCL2 220812Z 17018KT 18/16 A2991 RMK A01 T01790157  RH  087%=      5-min Rain = 0
KCL2 220813Z 17015KT 18/16 A2991 RMK A01 T01800157  RH  086%=      5-min Rain = 0
KCL2 220814Z 17015KT 18/16 A2991 RMK A01 T01790156  RH  086%=      5-min Rain = 0
KCL2 220815Z 17011G17KT 18/16 A2991 RMK A01 T01790157  RH  086%=      5-min Rain = 0
KCL2 220816Z 17014G21KT 18/16 A2991 RMK A01 T01790157  RH  087%=      5-min Rain = 0
KCL2 220817Z 17013G18KT 18/16 A2991 RMK A01 T01790157  RH  087%=      5-min Rain = 0
KCL2 220818Z 17015KT 18/16 A2991 RMK A01 T01780156  RH  087%=      5-min Rain = 0
KCL2 220819Z 18013KT 18/16 A2991 RMK A01 T01780157  RH  087%=      5-min Rain = 0
KCL2 220820Z 18014KT 18/16 A2991 RMK A01 T01780157  RH  087%=      5-min Rain = 0
KCL2 220821Z 17013KT 18/16 A2991 RMK A01 T01780156  RH  087%=      5-min Rain = 0
KCL2 220822Z 17014G21KT 18/16 A2991 RMK A01 T01780157  RH  087%=      5-min Rain = 0
KCL2 220823Z 17015KT 18/16 A2991 RMK A01 T01780157  RH  087%=      5-min Rain = 0
KCL2 220824Z 17011G16KT 18/16 A2991 RMK A01 T01780157  RH  087%=      5-min Rain = 0
KCL2 220825Z 17013KT 18/16 A2991 RMK A01 T01780156  RH  087%=      5-min Rain = 0
KCL2 220826Z 17015KT 18/16 A2991 RMK A01 T01770156  RH  087%=      5-min Rain = 0
KCL2 220827Z 18015KT 18/16 A2991 RMK A01 T01770156  RH  087%=      5-min Rain = 0
KCL2 220828Z 17011KT 18/16 A2991 RMK A01 T01770156  RH  087%=      5-min Rain = 0
KCL2 220829Z 18010KT 18/16 A2991 RMK A01 T01770156  RH  087%=      5-min Rain = 0
KCL2 220830Z 17013KT 18/16 A2991 RMK A01 T01770156  RH  087%=      5-min Rain = 0
KCL2 220831Z 17014KT 18/16 A2991 RMK A01 T01770156  RH  088%=      5-min Rain = 0
KCL2 220832Z 18013KT 18/16 A2991 RMK A01 T01770156  RH  088%=      5-min Rain = 0
KCL2 220833Z 17014G19KT 18/16 A2991 RMK A01 T01770156  RH  088%=      5-min Rain = 0
KCL2 220834Z 17015KT 18/16 A2991 RMK A01 T01770156  RH  088%=      5-min Rain = 0
KCL2 220835Z 18015G21KT 18/16 A2991 RMK A01 T01770156  RH  088%=      5-min Rain = 0
KCL2 220836Z 18014KT 18/16 A2991 RMK A01 T01770156  RH  088%=      5-min Rain = 0
KCL2 220837Z 17014KT 18/16 A2991 RMK A01 T01770156  RH  088%=      5-min Rain = 0
KCL2 220838Z 18015KT 18/16 A2991 RMK A01 T01770156  RH  088%=      5-min Rain = 0
KCL2 220839Z 17015KT 18/16 A2991 RMK A01 T01760155  RH  088%=      5-min Rain = 0
KCL2 220840Z 17013KT 18/16 A2991 RMK A01 T01760155  RH  088%=      5-min Rain = 0
KCL2 220841Z 18012KT 18/16 A2991 RMK A01 T01760155  RH  088%=      5-min Rain = 0
KCL2 220842Z 17012KT 18/16 A2991 RMK A01 T01760155  RH  088%=      5-min Rain = 0
KCL2 220843Z 17011KT 18/16 A2991 RMK A01 T01760155  RH  088%=      5-min Rain = 0
KCL2 220844Z 17012G17KT 18/16 A2991 RMK A01 T01760156  RH  088%=      5-min Rain = 0
KCL2 220845Z 17012KT 18/16 A2991 RMK A01 T01750155  RH  088%=      5-min Rain = 0
KCL2 220846Z 17014KT 18/16 A2991 RMK A01 T01750155  RH  088%=      5-min Rain = 0
KCL2 220847Z 17015G21KT 18/16 A2991 RMK A01 T01760155  RH  088%=      5-min Rain = 0
KCL2 220848Z 17016KT 18/16 A2991 RMK A01 T01750155  RH  088%=      5-min Rain = 0
KCL2 220849Z 17015KT 18/16 A2991 RMK A01 T01750155  RH  088%=      5-min Rain = 0
KCL2 220850Z 17012KT 18/16 A2991 RMK A01 T01750155  RH  088%=      5-min Rain = 0
KCL2 220851Z 18012G17KT 18/16 A2991 RMK A01 T01750155  RH  088%=      5-min Rain = 0
KCL2 220852Z 17012G17KT 18/16 A2991 RMK A01 T01750155  RH  088%=      5-min Rain = 0
KCL2 220853Z 17018KT 18/16 A2991 RMK A01 T01750155  RH  088%=      5-min Rain = 0
KCL2 220854Z 17015KT 18/16 A2991 RMK A01 T01750155  RH  088%=      5-min Rain = 0
KCL2 220855Z 17018G24KT 18/16 A2991 RMK A01 T01750155  RH  088%=      5-min Rain = 0
KCL2 220856Z 17015G22KT 18/16 A2991 RMK A01 T01750155  RH  088%=      5-min Rain = 0
KCL2 220857Z 17016KT 18/16 A2991 RMK A01 T01750155  RH  088%=      5-min Rain = 0
KCL2 220858Z 17012KT 18/16 A2991 RMK A01 T01750155  RH  088%=      5-min Rain = 0
KCL2 220859Z 17013KT 18/16 A2991 RMK A01 T01750155  RH  088%=      5-min Rain = 0
KCL2 220900Z 18016G22KT 18/16 A2991 RMK A01 T01750155  RH  088%=      5-min Rain = 0
KCL2 220901Z 17016KT 18/16 A2991 RMK A01 T01750156  RH  088%=      5-min Rain = 0
KCL2 220902Z 17015KT 18/16 A2991 RMK A01 T01750155  RH  088%=      5-min Rain = 0
KCL2 220903Z 17014KT 18/16 A2991 RMK A01 T01750155  RH  088%=      5-min Rain = 0
KCL2 220904Z 17016KT 17/16 A2991 RMK A01 T01740155  RH  088%=      5-min Rain = 0
KCL2 220905Z 17013G18KT 17/16 A2991 RMK A01 T01740155  RH  088%=      5-min Rain = 0
KCL2 220906Z 17013KT 17/16 A2991 RMK A01 T01740155  RH  088%=      5-min Rain = 0
KCL2 220907Z 17013KT 17/16 A2991 RMK A01 T01740155  RH  088%=      5-min Rain = 0
KCL2 220908Z 17013KT 17/16 A2991 RMK A01 T01740155  RH  089%=      5-min Rain = 0
KCL2 220909Z 17012G17KT 17/16 A2991 RMK A01 T01740155  RH  089%=      5-min Rain = 0
KCL2 220910Z 17013G18KT 17/16 A2991 RMK A01 T01730155  RH  089%=      5-min Rain = 0
KCL2 220911Z 17017KT 17/16 A2991 RMK A01 T01730155  RH  089%=      5-min Rain = 0
KCL2 220912Z 18014G20KT 17/15 A2991 RMK A01 T01730154  RH  089%=      5-min Rain = 0
KCL2 220913Z 17016KT 17/15 A2991 RMK A01 T01730154  RH  089%=      5-min Rain = 0
KCL2 220914Z 18014G21KT 17/16 A2991 RMK A01 T01730155  RH  089%=      5-min Rain = 0
KCL2 220915Z 18016KT 17/15 A2991 RMK A01 T01720154  RH  089%=      5-min Rain = 0
KCL2 220916Z 18015KT 17/15 A2991 RMK A01 T01720154  RH  089%=      5-min Rain = 0
KCL2 220917Z 17013KT 17/15 A2991 RMK A01 T01710154  RH  089%=      5-min Rain = 0
KCL2 220918Z 18014KT 17/15 A2991 RMK A01 T01710154  RH  090%=      5-min Rain = 0
KCL2 220919Z 18015KT 17/15 A2991 RMK A01 T01710154  RH  090%=      5-min Rain = 0
KCL2 220920Z 17016KT 17/15 A2991 RMK A01 T01710154  RH  090%=      5-min Rain = 0
KCL2 220921Z 17017G24KT 17/15 A2991 RMK A01 T01710154  RH  090%=      5-min Rain = 0
KCL2 220922Z 18016G21KT 17/15 A2991 RMK A01 T01700154  RH  090%=      5-min Rain = 0
KCL2 220923Z 18018KT 17/15 A2991 RMK A01 T01700154  RH  090%=      5-min Rain = 0
KCL2 220924Z 17016KT 17/15 A2991 RMK A01 T01700154  RH  090%=      5-min Rain = 0
KCL2 220925Z 17018KT 17/15 A2991 RMK A01 T01700154  RH  090%=      5-min Rain = 0
KCL2 220926Z 18018KT 17/15 A2991 RMK A01 T01700154  RH  090%=      5-min Rain = 0
KCL2 220927Z 17016G21KT 17/15 A2991 RMK A01 T01700154  RH  090%=      5-min Rain = 0
KCL2 220928Z 18015KT 17/15 A2991 RMK A01 T01700154  RH  090%=      5-min Rain = 0
KCL2 220929Z 17018KT 17/15 A2991 RMK A01 T01700154  RH  090%=      5-min Rain = 0
KCL2 220930Z 18018G23KT 17/15 A2991 RMK A01 T01690154  RH  091%=      5-min Rain = 0
KCL2 220931Z 17016KT 17/15 A2991 RMK A01 T01690154  RH  091%=      5-min Rain = 0
KCL2 220932Z 18016KT 17/15 A2991 RMK A01 T01690154  RH  091%=      5-min Rain = 0
KCL2 220933Z 18013KT 17/15 A2992 RMK A01 T01690153  RH  091%=      5-min Rain = 0
KCL2 220934Z 18014G21KT 17/15 A2992 RMK A01 T01690154  RH  091%=      5-min Rain = 0
KCL2 220935Z 18015KT 17/15 A2992 RMK A01 T01680153  RH  091%=      5-min Rain = 0
KCL2 220936Z 18019G25KT 17/15 A2992 RMK A01 T01680154  RH  091%=      5-min Rain = 0
KCL2 220937Z 18018KT 17/15 A2991 RMK A01 T01680154  RH  091%=      5-min Rain = 0
KCL2 220938Z 17016G21KT 17/15 A2992 RMK A01 T01680154  RH  091%=      5-min Rain = 0
KCL2 220939Z 17017G22KT 17/15 A2992 RMK A01 T01680154  RH  091%=      5-min Rain = 0
KCL2 220940Z 18015KT 17/15 A2992 RMK A01 T01680154  RH  091%=      5-min Rain = 0
KCL2 220941Z 18016G21KT 17/15 A2991 RMK A01 T01680153  RH  091%=      5-min Rain = 0
KCL2 220942Z 17015KT 17/15 A2991 RMK A01 T01670153  RH  091%=      5-min Rain = 0
KCL2 220943Z 17018KT 17/15 A2991 RMK A01 T01680154  RH  091%=      5-min Rain = 0
KCL2 220944Z 17013KT 17/15 A2991 RMK A01 T01680154  RH  092%=      5-min Rain = 0
KCL2 220945Z 17013KT 17/15 A2991 RMK A01 T01670153  RH  092%=      5-min Rain = 0
KCL2 220946Z 17016KT 17/15 A2992 RMK A01 T01670153  RH  092%=      5-min Rain = 0
KCL2 220947Z 18014G20KT 17/15 A2992 RMK A01 T01670154  RH  092%=      5-min Rain = 0
KCL2 220948Z 17015KT 17/15 A2992 RMK A01 T01660153  RH  092%=      5-min Rain = 0
KCL2 220949Z 17017KT 17/15 A2991 RMK A01 T01660153  RH  092%=      5-min Rain = 0
KCL2 220950Z 17014KT 17/15 A2992 RMK A01 T01660154  RH  092%=      5-min Rain = 0
KCL2 220951Z 18016KT 17/15 A2992 RMK A01 T01660153  RH  092%=      5-min Rain = 0
KCL2 220952Z 18014KT 17/15 A2992 RMK A01 T01660153  RH  092%=      5-min Rain = 0
KCL2 220953Z 18016KT 17/15 A2992 RMK A01 T01660153  RH  092%=      5-min Rain = 0
KCL2 220954Z 18017G22KT 17/15 A2992 RMK A01 T01660154  RH  092%=      5-min Rain = 0
KCL2 220955Z 18018KT 17/15 A2992 RMK A01 T01660153  RH  092%=      5-min Rain = 0
KCL2 220956Z 18017KT 17/15 A2992 RMK A01 T01660153  RH  092%=      5-min Rain = 0
KCL2 220957Z 18016G23KT 17/15 A2992 RMK A01 T01660153  RH  092%=      5-min Rain = 0
KCL2 220958Z 18014KT 17/15 A2992 RMK A01 T01660153  RH  092%=      5-min Rain = 0
KCL2 220959Z 18017G22KT 17/15 A2992 RMK A01 T01660153  RH  092%=      5-min Rain = 0
KCL2 221000Z 18015KT 17/15 A2992 RMK A01 T01660153  RH  092%=      5-min Rain = 0
KCL2 221001Z 18013KT 17/15 A2992 RMK A01 T01660153  RH  092%=      5-min Rain = 0
KCL2 221002Z 18015KT 17/15 A2992 RMK A01 T01650153  RH  092%=      5-min Rain = 0
KCL2 221003Z 18016G21KT 17/15 A2992 RMK A01 T01650153  RH  093%=      5-min Rain = 0
KCL2 221004Z 18015KT 17/15 A2992 RMK A01 T01660153  RH  093%=      5-min Rain = 0
KCL2 221005Z 18016G21KT 17/15 A2992 RMK A01 T01650153  RH  092%=      5-min Rain = 0
KCL2 221006Z 18016KT 17/15 A2992 RMK A01 T01650153  RH  092%=      5-min Rain = 0
KCL2 221007Z 18015KT 17/15 A2992 RMK A01 T01650153  RH  092%=      5-min Rain = 0
KCL2 221008Z 18017KT 17/15 A2992 RMK A01 T01650153  RH  092%=      5-min Rain = 0
KCL2 221009Z 18015KT 17/15 A2992 RMK A01 T01650153  RH  092%=      5-min Rain = 0
KCL2 221010Z 18015KT 17/15 A2992 RMK A01 T01650153  RH  093%=      5-min Rain = 0
KCL2 221011Z 18015G21KT 17/15 A2992 RMK A01 T01650153  RH  093%=      5-min Rain = 0
KCL2 221012Z 18016KT 17/15 A2992 RMK A01 T01650153  RH  093%=      5-min Rain = 0
KCL2 221013Z 18016G23KT 17/15 A2992 RMK A01 T01650153  RH  093%=      5-min Rain = 0
KCL2 221014Z 18017KT 17/15 A2991 RMK A01 T01650153  RH  093%=      5-min Rain = 0
KCL2 221015Z 18015KT 17/15 A2992 RMK A01 T01650153  RH  093%=      5-min Rain = 0
KCL2 221016Z 18015G21KT 17/15 A2992 RMK A01 T01650153  RH  093%=      5-min Rain = 0
KCL2 221017Z 18016KT 17/15 A2992 RMK A01 T01650153  RH  093%=      5-min Rain = 0
KCL2 221018Z 17015KT 17/15 A2992 RMK A01 T01650153  RH  093%=      5-min Rain = 0
KCL2 221019Z 18012G19KT 17/15 A2992 RMK A01 T01650153  RH  093%=      5-min Rain = 0
KCL2 221020Z 18014G19KT 16/15 A2992 RMK A01 T01640153  RH  093%=      5-min Rain = 0
KCL2 221021Z 17015KT 16/15 A2992 RMK A01 T01640153  RH  093%=      5-min Rain = 0
KCL2 221022Z 18015G21KT 16/15 A2992 RMK A01 T01640153  RH  093%=      5-min Rain = 0
KCL2 221023Z 18016KT 16/15 A2992 RMK A01 T01640153  RH  093%=      5-min Rain = 0
KCL2 221024Z 17015KT 16/15 A2992 RMK A01 T01640153  RH  093%=      5-min Rain = 0
KCL2 221025Z 18013G19KT 16/15 A2992 RMK A01 T01640153  RH  093%=      5-min Rain = 0
KCL2 221026Z 18014G20KT 16/15 A2992 RMK A01 T01640153  RH  093%=      5-min Rain = 0
KCL2 221027Z 18017KT 16/15 A2992 RMK A01 T01640153  RH  093%=      5-min Rain = 0
KCL2 221028Z 18016KT 16/15 A2992 RMK A01 T01640153  RH  093%=      5-min Rain = 0
KCL2 221029Z 17013KT 16/15 A2992 RMK A01 T01640153  RH  093%=      5-min Rain = 0
KCL2 221030Z 18015KT 16/15 A2992 RMK A01 T01640153  RH  093%=      5-min Rain = 0
KCL2 221031Z 18013KT 16/15 A2992 RMK A01 T01640153  RH  093%=      5-min Rain = 0
KCL2 221032Z 18017KT 16/15 A2992 RMK A01 T01640153  RH  093%=      5-min Rain = 0
KCL2 221033Z 18015KT 16/15 A2992 RMK A01 T01640153  RH  093%=      5-min Rain = 0
KCL2 221034Z 18015KT 16/15 A2992 RMK A01 T01640153  RH  093%=      5-min Rain = 0
KCL2 221035Z 18015KT 16/15 A2992 RMK A01 T01640152  RH  093%=      5-min Rain = 0
KCL2 221036Z 18014KT 16/15 A2992 RMK A01 T01640152  RH  093%=      5-min Rain = 0
KCL2 221037Z 18013G18KT 16/15 A2992 RMK A01 T01640152  RH  093%=      5-min Rain = 0
KCL2 221038Z 18012KT 16/15 A2992 RMK A01 T01640153  RH  093%=      5-min Rain = 0
KCL2 221039Z 19014KT 16/15 A2992 RMK A01 T01630152  RH  093%=      5-min Rain = 0
KCL2 221040Z 18014KT 16/15 A2992 RMK A01 T01640153  RH  093%=      5-min Rain = 0
KCL2 221041Z 18012KT 16/15 A2993 RMK A01 T01630153  RH  093%=      5-min Rain = 0
KCL2 221042Z 19012KT 16/15 A2992 RMK A01 T01630153  RH  093%=      5-min Rain = 0
KCL2 221043Z 18010G15KT 16/15 A2992 RMK A01 T01640153  RH  093%=      5-min Rain = 0
KCL2 221044Z 18012KT 16/15 A2992 RMK A01 T01630153  RH  093%=      5-min Rain = 0
KCL2 221045Z 18015KT 16/15 A2992 RMK A01 T01640153  RH  093%=      5-min Rain = 0
KCL2 221046Z 18013KT 16/15 A2992 RMK A01 T01640153  RH  093%=      5-min Rain = 0
KCL2 221047Z 18015KT 16/15 A2992 RMK A01 T01630153  RH  093%=      5-min Rain = 0
KCL2 221048Z 18012KT 16/15 A2992 RMK A01 T01640153  RH  093%=      5-min Rain = 0
KCL2 221049Z 18012KT 16/15 A2992 RMK A01 T01630152  RH  093%=      5-min Rain = 0
KCL2 221050Z 18014KT 16/15 A2992 RMK A01 T01630152  RH  093%=      5-min Rain = 0
KCL2 221051Z 18013KT 16/15 A2992 RMK A01 T01630153  RH  093%=      5-min Rain = 0
KCL2 221052Z 17014KT 16/15 A2992 RMK A01 T01630152  RH  093%=      5-min Rain = 0
KCL2 221053Z 18014G20KT 16/15 A2992 RMK A01 T01630152  RH  093%=      5-min Rain = 0
KCL2 221054Z 18010KT 16/15 A2992 RMK A01 T01630152  RH  093%=      5-min Rain = 0
KCL2 221055Z 19013G18KT 16/15 A2992 RMK A01 T01630152  RH  093%=      5-min Rain = 0
KCL2 221056Z 18015KT 16/15 A2992 RMK A01 T01630152  RH  094%=      5-min Rain = 0
KCL2 221057Z 18014KT 16/15 A2992 RMK A01 T01630153  RH  094%=      5-min Rain = 0
KCL2 221058Z 18014KT 16/15 A2992 RMK A01 T01630152  RH  093%=      5-min Rain = 0
KCL2 221059Z 19013KT 16/15 A2992 RMK A01 T01630152  RH  093%=      5-min Rain = 0
KCL2 221100Z 18013KT 16/15 A2992 RMK A01 T01630152  RH  094%=      5-min Rain = 0
KCL2 221101Z 18014KT 16/15 A2992 RMK A01 T01620152  RH  094%=      5-min Rain = 0
KCL2 221102Z 18013KT 16/15 A2992 RMK A01 T01620152  RH  094%=      5-min Rain = 0
KCL2 221103Z 18016G21KT 16/15 A2992 RMK A01 T01630152  RH  094%=      5-min Rain = 0
KCL2 221104Z 18015KT 16/15 A2992 RMK A01 T01620152  RH  094%=      5-min Rain = 0
KCL2 221105Z 18016KT 16/15 A2992 RMK A01 T01620152  RH  094%=      5-min Rain = 0
KCL2 221106Z 18013KT 16/15 A2992 RMK A01 T01620152  RH  094%=      5-min Rain = 0
KCL2 221107Z 18013KT 16/15 A2992 RMK A01 T01620152  RH  094%=      5-min Rain = 0
KCL2 221108Z 18014KT 16/15 A2992 RMK A01 T01620152  RH  094%=      5-min Rain = 0
KCL2 221109Z 18016KT 16/15 A2992 RMK A01 T01620152  RH  094%=      5-min Rain = 0
KCL2 221110Z 18014KT 16/15 A2992 RMK A01 T01620152  RH  094%=      5-min Rain = 0
KCL2 221111Z 18014G19KT 16/15 A2992 RMK A01 T01620152  RH  094%=      5-min Rain = 0
KCL2 221112Z 18014KT 16/15 A2992 RMK A01 T01620152  RH  094%=      5-min Rain = 0
KCL2 221113Z 18016G22KT 16/15 A2992 RMK A01 T01620152  RH  094%=      5-min Rain = 0
KCL2 221114Z 18013KT 16/15 A2992 RMK A01 T01620152  RH  094%=      5-min Rain = 0
KCL2 221115Z 18015KT 16/15 A2992 RMK A01 T01620152  RH  094%=      5-min Rain = 0
KCL2 221116Z 18013KT 16/15 A2992 RMK A01 T01620152  RH  094%=      5-min Rain = 0
KCL2 221117Z 18013KT 16/15 A2992 RMK A01 T01610152  RH  094%=      5-min Rain = 0
KCL2 221118Z 18012KT 16/15 A2992 RMK A01 T01610152  RH  094%=      5-min Rain = 0
KCL2 221119Z 19016KT 16/15 A2992 RMK A01 T01610152  RH  095%=      5-min Rain = 0
KCL2 221120Z 18013G18KT 16/15 A2992 RMK A01 T01610152  RH  095%=      5-min Rain = 0
KCL2 221121Z 18014G19KT 16/15 A2992 RMK A01 T01610152  RH  094%=      5-min Rain = 0
KCL2 221122Z 18013G20KT 16/15 A2992 RMK A01 T01610152  RH  095%=      5-min Rain = 0
KCL2 221123Z 18014KT 16/15 A2992 RMK A01 T01610153  RH  094%=      5-min Rain = 0
KCL2 221124Z 18014KT 16/15 A2992 RMK A01 T01610152  RH  094%=      5-min Rain = 0
KCL2 221125Z 18015KT 16/15 A2992 RMK A01 T01610153  RH  095%=      5-min Rain = 0
KCL2 221126Z 18013KT 16/15 A2992 RMK A01 T01610152  RH  095%=      5-min Rain = 0
KCL2 221127Z 18012KT 16/15 A2992 RMK A01 T01610152  RH  095%=      5-min Rain = 0
KCL2 221128Z 18014KT 16/15 A2992 RMK A01 T01610152  RH  095%=      5-min Rain = 0
KCL2 221129Z 18015G20KT 16/15 A2992 RMK A01 T01610153  RH  095%=      5-min Rain = 0
KCL2 221130Z 18013KT 16/15 A2992 RMK A01 T01610152  RH  095%=      5-min Rain = 0
KCL2 221131Z 18013KT 16/15 A2992 RMK A01 T01610152  RH  095%=      5-min Rain = 0
KCL2 221132Z 18014KT 16/15 A2992 RMK A01 T01610152  RH  095%=      5-min Rain = 0
KCL2 221133Z 18013G18KT 16/15 A2992 RMK A01 T01610152  RH  095%=      5-min Rain = 0
KCL2 221134Z 18012KT 16/15 A2993 RMK A01 T01610152  RH  095%=      5-min Rain = 0
KCL2 221135Z 18011G16KT 16/15 A2993 RMK A01 T01610152  RH  095%=      5-min Rain = 0
KCL2 221136Z 18012KT 16/15 A2993 RMK A01 T01600152  RH  095%=      5-min Rain = 0
KCL2 221137Z 18016KT 16/15 A2993 RMK A01 T01600152  RH  095%=      5-min Rain = 0
KCL2 221138Z 18013KT 16/15 A2993 RMK A01 T01600152  RH  095%=      5-min Rain = 0
KCL2 221139Z 18014G19KT 16/15 A2993 RMK A01 T01600152  RH  095%=      5-min Rain = 0
KCL2 221140Z 18014G20KT 16/15 A2993 RMK A01 T01600152  RH  095%=      5-min Rain = 0
KCL2 221141Z 18014KT 16/15 A2993 RMK A01 T01610152  RH  095%=      5-min Rain = 0
KCL2 221142Z 17012KT 16/15 A2993 RMK A01 T01610152  RH  095%=      5-min Rain = 0
KCL2 221143Z 18012KT 16/15 A2993 RMK A01 T01610152  RH  094%=      5-min Rain = 0
KCL2 221144Z 18016KT 16/15 A2993 RMK A01 T01610153  RH  095%=      5-min Rain = 0
KCL2 221145Z 18014KT 16/15 A2993 RMK A01 T01610153  RH  095%=      5-min Rain = 0
KCL2 221146Z 18015G21KT 16/15 A2993 RMK A01 T01610152  RH  094%=      5-min Rain = 0
KCL2 221147Z 18018KT 16/15 A2993 RMK A01 T01610152  RH  094%=      5-min Rain = 0
KCL2 221148Z 18014KT 16/15 A2993 RMK A01 T01630153  RH  094%=      5-min Rain = 0
KCL2 221149Z 17014KT 16/15 A2993 RMK A01 T01630152  RH  094%=      5-min Rain = 0
KCL2 221150Z 18015KT 16/15 A2993 RMK A01 T01630152  RH  093%=      5-min Rain = 0
KCL2 221151Z 18013KT 16/15 A2993 RMK A01 T01620152  RH  093%=      5-min Rain = 0
KCL2 221152Z 18017KT 16/15 A2993 RMK A01 T01620152  RH  093%=      5-min Rain = 0
KCL2 221153Z 18012KT 16/15 A2993 RMK A01 T01620152  RH  094%=      5-min Rain = 0
KCL2 221154Z 18013KT 16/15 A2993 RMK A01 T01630152  RH  093%=      5-min Rain = 0
KCL2 221155Z 18013KT 16/15 A2993 RMK A01 T01630152  RH  094%=      5-min Rain = 0
KCL2 221156Z 18012KT 16/15 A2994 RMK A01 T01620152  RH  094%=      5-min Rain = 0
KCL2 221157Z 18012KT 16/15 A2994 RMK A01 T01620152  RH  094%=      5-min Rain = 0
KCL2 221158Z 18014KT 16/15 A2994 RMK A01 T01620152  RH  094%=      5-min Rain = 0
KCL2 221159Z 18016G21KT 16/15 A2994 RMK A01 T01620152  RH  094%=      5-min Rain = 0
KCL2 221200Z 18014KT 16/15 A2994 RMK A01 T01620152  RH  094%=      5-min Rain = 0
KCL2 221201Z 17011G17KT 16/15 A2994 RMK A01 T01620152  RH  094%=      5-min Rain = 0
KCL2 221202Z 18014KT 16/15 A2994 RMK A01 T01610152  RH  094%=      5-min Rain = 0
KCL2 221203Z 18012G17KT 16/15 A2994 RMK A01 T01620152  RH  094%=      5-min Rain = 0
KCL2 221204Z 18011KT 16/15 A2994 RMK A01 T01620152  RH  094%=      5-min Rain = 0
KCL2 221205Z 18013KT 16/15 A2994 RMK A01 T01620152  RH  094%=      5-min Rain = 0
KCL2 221206Z 18012G17KT 16/15 A2994 RMK A01 T01610152  RH  094%=      5-min Rain = 0
KCL2 221207Z 18012G17KT 16/15 A2994 RMK A01 T01610152  RH  094%=      5-min Rain = 0
KCL2 221208Z 18013KT 16/15 A2994 RMK A01 T01610152  RH  094%=      5-min Rain = 0
KCL2 221209Z 18012KT 16/15 A2994 RMK A01 T01610152  RH  095%=      5-min Rain = 0
KCL2 221210Z 18013KT 16/15 A2994 RMK A01 T01610152  RH  095%=      5-min Rain = 0
KCL2 221211Z 18014KT 16/15 A2994 RMK A01 T01610152  RH  095%=      5-min Rain = 0
KCL2 221212Z 18012KT 16/15 A2994 RMK A01 T01610152  RH  095%=      5-min Rain = 0
KCL2 221213Z 18012KT 16/15 A2994 RMK A01 T01610152  RH  095%=      5-min Rain = 0
KCL2 221214Z 17012KT 16/15 A2994 RMK A01 T01600152  RH  095%=      5-min Rain = 0
KCL2 221215Z 17010KT 16/15 A2994 RMK A01 T01610152  RH  095%=      5-min Rain = 0
KCL2 221216Z 18010KT 16/15 A2994 RMK A01 T01610152  RH  095%=      5-min Rain = 0
KCL2 221217Z 17011G16KT 16/15 A2994 RMK A01 T01610152  RH  095%=      5-min Rain = 0
KCL2 221218Z 18012KT 16/15 A2994 RMK A01 T01600152  RH  095%=      5-min Rain = 0
KCL2 221219Z 18014KT 16/15 A2994 RMK A01 T01600152  RH  095%=      5-min Rain = 0
KCL2 221220Z 18011KT 16/15 A2994 RMK A01 T01600152  RH  095%=      5-min Rain = 0
KCL2 221221Z 18011KT 16/15 A2994 RMK A01 T01600152  RH  095%=      5-min Rain = 0
KCL2 221222Z 17009KT 16/15 A2995 RMK A01 T01600152  RH  095%=      5-min Rain = 0
KCL2 221223Z 18010KT 16/15 A2995 RMK A01 T01600152  RH  095%=      5-min Rain = 0
KCL2 221224Z 18010KT 16/15 A2995 RMK A01 T01600152  RH  095%=      5-min Rain = 0
KCL2 221225Z 18011KT 16/15 A2995 RMK A01 T01600152  RH  095%=      5-min Rain = 0
KCL2 221226Z 18011KT 16/15 A2995 RMK A01 T01600152  RH  095%=      5-min Rain = 0
KCL2 221227Z 17010KT 16/15 A2995 RMK A01 T01600153  RH  095%=      5-min Rain = 0
KCL2 221228Z 18009KT 16/15 A2995 RMK A01 T01600152  RH  095%=      5-min Rain = 0
KCL2 221229Z 18012KT 16/15 A2995 RMK A01 T01600153  RH  095%=      5-min Rain = 0
KCL2 221230Z 18010KT 16/15 A2995 RMK A01 T01600153  RH  095%=      5-min Rain = 0
KCL2 221231Z 18009KT 16/15 A2995 RMK A01 T01600153  RH  095%=      5-min Rain = 0
KCL2 221232Z 18009KT 16/15 A2995 RMK A01 T01600153  RH  095%=      5-min Rain = 0
KCL2 221233Z 18011KT 16/15 A2996 RMK A01 T01600153  RH  095%=      5-min Rain = 0
KCL2 221234Z 18012KT 16/15 A2996 RMK A01 T01600153  RH  095%=      5-min Rain = 0
KCL2 221235Z 18010KT 16/15 A2996 RMK A01 T01600153  RH  095%=      5-min Rain = 0
KCL2 221236Z 18010KT 16/15 A2996 RMK A01 T01600152  RH  095%=      5-min Rain = 0
KCL2 221237Z 18010KT 16/15 A2996 RMK A01 T01600153  RH  095%=      5-min Rain = 0
KCL2 221238Z 18010KT 16/15 A2996 RMK A01 T01600153  RH  095%=      5-min Rain = 0
KCL2 221239Z 18012KT 16/15 A2996 RMK A01 T01600153  RH  095%=      5-min Rain = 0
KCL2 221240Z 18010KT 16/15 A2996 RMK A01 T01600153  RH  095%=      5-min Rain = 0
KCL2 221241Z 18012KT 16/15 A2996 RMK A01 T01600153  RH  095%=      5-min Rain = 0
KCL2 221242Z 18010KT 16/15 A2996 RMK A01 T01600153  RH  095%=      5-min Rain = 0
KCL2 221243Z 18011G16KT 16/15 A2996 RMK A01 T01600153  RH  095%=      5-min Rain = 0
KCL2 221244Z 18012G17KT 16/15 A2996 RMK A01 T01600153  RH  095%=      5-min Rain = 0
KCL2 221245Z 19010KT 16/15 A2996 RMK A01 T01600153  RH  095%=      5-min Rain = 0
KCL2 221246Z 18015KT 16/15 A2996 RMK A01 T01610153  RH  095%=      5-min Rain = 0
KCL2 221247Z 18014KT 16/15 A2996 RMK A01 T01610153  RH  095%=      5-min Rain = 0
KCL2 221248Z 18012KT 16/15 A2996 RMK A01 T01610153  RH  095%=      5-min Rain = 0
KCL2 221249Z 18013KT 16/15 A2996 RMK A01 T01610153  RH  095%=      5-min Rain = 0
KCL2 221250Z 18012G17KT 16/15 A2996 RMK A01 T01610153  RH  095%=      5-min Rain = 0
KCL2 221251Z 18013KT 16/15 A2996 RMK A01 T01610153  RH  095%=      5-min Rain = 0
KCL2 221252Z 18013KT 16/15 A2996 RMK A01 T01610153  RH  095%=      5-min Rain = 0
KCL2 221253Z 18013KT 16/15 A2996 RMK A01 T01610153  RH  095%=      5-min Rain = 0
KCL2 221254Z 18012KT 16/15 A2996 RMK A01 T01610153  RH  095%=      5-min Rain = 0
KCL2 221255Z 19010KT 16/15 A2996 RMK A01 T01610154  RH  095%=      5-min Rain = 0
KCL2 221256Z 18012KT 16/15 A2996 RMK A01 T01610154  RH  095%=      5-min Rain = 0
KCL2 221257Z 18016KT 16/15 A2996 RMK A01 T01610154  RH  095%=      5-min Rain = 0
KCL2 221258Z 19012KT 16/15 A2997 RMK A01 T01620154  RH  095%=      5-min Rain = 0
KCL2 221259Z 19012KT 16/15 A2997 RMK A01 T01620154  RH  095%=      5-min Rain = 0
KCL2 221300Z 18012KT 16/15 A2997 RMK A01 T01620153  RH  095%=      5-min Rain = 0
KCL2 221301Z 18012KT 16/15 A2997 RMK A01 T01620154  RH  095%=      5-min Rain = 0
KCL2 221302Z 18013KT 16/15 A2997 RMK A01 T01620154  RH  095%=      5-min Rain = 0
KCL2 221303Z 18014KT 16/15 A2997 RMK A01 T01620154  RH  095%=      5-min Rain = 0
KCL2 221304Z 18014KT 16/15 A2997 RMK A01 T01620154  RH  095%=      5-min Rain = 0
KCL2 221305Z 18011KT 16/15 A2997 RMK A01 T01620154  RH  095%=      5-min Rain = 0
KCL2 221306Z 18011KT 16/15 A2997 RMK A01 T01620154  RH  095%=      5-min Rain = 0
KCL2 221307Z 19013KT 16/15 A2997 RMK A01 T01630154  RH  095%=      5-min Rain = 0
KCL2 221308Z 18017KT 16/15 A2997 RMK A01 T01620154  RH  095%=      5-min Rain = 0
KCL2 221309Z 18015KT 16/15 A2997 RMK A01 T01620154  RH  095%=      5-min Rain = 0
KCL2 221310Z 18013KT 16/15 A2997 RMK A01 T01630154  RH  095%=      5-min Rain = 0
KCL2 221311Z 18012KT 16/15 A2997 RMK A01 T01630154  RH  095%=      5-min Rain = 0
KCL2 221312Z 18010KT 16/15 A2997 RMK A01 T01630154  RH  095%=      5-min Rain = 0
KCL2 221313Z 18013KT 16/16 A2997 RMK A01 T01630155  RH  095%=      5-min Rain = 0
KCL2 221314Z 18014KT 16/15 A2997 RMK A01 T01630154  RH  095%=      5-min Rain = 0
KCL2 221315Z 18016KT 16/15 A2997 RMK A01 T01630154  RH  094%=      5-min Rain = 0
KCL2 221316Z 18016KT 16/15 A2997 RMK A01 T01630154  RH  094%=      5-min Rain = 0
KCL2 221317Z 18014KT 16/15 A2997 RMK A01 T01630154  RH  094%=      5-min Rain = 0
KCL2 221318Z 18014KT 16/15 A2997 RMK A01 T01630154  RH  094%=      5-min Rain = 0
KCL2 221319Z 18015KT 16/15 A2997 RMK A01 T01630154  RH  094%=      5-min Rain = 0
KCL2 221320Z 18015KT 16/15 A2997 RMK A01 T01630154  RH  094%=      5-min Rain = 0
KCL2 221321Z 18011KT 16/15 A2997 RMK A01 T01630154  RH  094%=      5-min Rain = 0
KCL2 221322Z 18013G19KT 16/15 A2997 RMK A01 T01640154  RH  094%=      5-min Rain = 0
KCL2 221323Z 18014KT 16/15 A2997 RMK A01 T01640154  RH  094%=      5-min Rain = 0
KCL2 221324Z 18016KT 16/15 A2997 RMK A01 T01640154  RH  094%=      5-min Rain = 0
KCL2 221325Z 18014KT 16/15 A2997 RMK A01 T01640154  RH  094%=      5-min Rain = 0
KCL2 221326Z 18011G16KT 16/15 A2997 RMK A01 T01640154  RH  094%=      5-min Rain = 0
KCL2 221327Z 18014KT 16/15 A2997 RMK A01 T01640154  RH  094%=      5-min Rain = 0
KCL2 221328Z 18013KT 16/15 A2997 RMK A01 T01640154  RH  093%=      5-min Rain = 0
KCL2 221329Z 18012KT 17/15 A2997 RMK A01 T01650154  RH  093%=      5-min Rain = 0
KCL2 221330Z 18011KT 17/15 A2997 RMK A01 T01650154  RH  093%=      5-min Rain = 0
KCL2 221331Z 18013KT 17/15 A2997 RMK A01 T01650154  RH  093%=      5-min Rain = 0
KCL2 221332Z 18012G17KT 17/15 A2997 RMK A01 T01650154  RH  093%=      5-min Rain = 0
KCL2 221333Z 18015KT 17/15 A2997 RMK A01 T01650153  RH  093%=      5-min Rain = 0
KCL2 221334Z 18012KT 17/15 A2997 RMK A01 T01650153  RH  093%=      5-min Rain = 0
KCL2 221335Z 18012G17KT 17/15 A2997 RMK A01 T01650153  RH  092%=      5-min Rain = 0
KCL2 221336Z 18014G20KT 17/15 A2997 RMK A01 T01660153  RH  092%=      5-min Rain = 0
KCL2 221337Z 18014KT 17/15 A2997 RMK A01 T01660153  RH  092%=      5-min Rain = 0
KCL2 221338Z 18012KT 17/15 A2997 RMK A01 T01670153  RH  092%=      5-min Rain = 0
KCL2 221339Z 19013KT 17/15 A2997 RMK A01 T01680154  RH  092%=      5-min Rain = 0
KCL2 221340Z 18012KT 17/15 A2997 RMK A01 T01690154  RH  091%=      5-min Rain = 0
KCL2 221341Z 19011G17KT 17/15 A2997 RMK A01 T01690154  RH  091%=      5-min Rain = 0
KCL2 221342Z 18016G21KT 17/15 A2997 RMK A01 T01690154  RH  091%=      5-min Rain = 0
KCL2 221343Z 18014KT 17/15 A2997 RMK A01 T01690153  RH  090%=      5-min Rain = 0
KCL2 221344Z 18013KT 17/15 A2997 RMK A01 T01690153  RH  091%=      5-min Rain = 0
KCL2 221345Z 18015KT 17/15 A2997 RMK A01 T01690154  RH  091%=      5-min Rain = 0
KCL2 221346Z 18012G17KT 17/15 A2997 RMK A01 T01690153  RH  090%=      5-min Rain = 0
KCL2 221347Z 18014KT 17/15 A2997 RMK A01 T01690154  RH  090%=      5-min Rain = 0
KCL2 221348Z 18014G19KT 17/15 A2997 RMK A01 T01700154  RH  090%=      5-min Rain = 0
KCL2 221349Z 18012G17KT 17/15 A2997 RMK A01 T01700153  RH  090%=      5-min Rain = 0
KCL2 221350Z 17013KT 17/15 A2997 RMK A01 T01710154  RH  089%=      5-min Rain = 0
KCL2 221351Z 18013KT 17/15 A2997 RMK A01 T01720154  RH  089%=      5-min Rain = 0
KCL2 221352Z 18013G19KT 17/15 A2998 RMK A01 T01730154  RH  088%=      5-min Rain = 0
KCL2 221353Z 18014KT 17/15 A2997 RMK A01 T01740154  RH  088%=      5-min Rain = 0
KCL2 221354Z 19014KT 17/15 A2997 RMK A01 T01740154  RH  088%=      5-min Rain = 0
KCL2 221355Z 18015G20KT 18/15 A2997 RMK A01 T01750154  RH  088%=      5-min Rain = 0
KCL2 221356Z 19015KT 18/15 A2997 RMK A01 T01750154  RH  087%=      5-min Rain = 0
KCL2 221357Z 18011KT 18/16 A2997 RMK A01 T01760155  RH  087%=      5-min Rain = 0
KCL2 221358Z 19014KT 18/16 A2997 RMK A01 T01780156  RH  087%=      5-min Rain = 0
KCL2 221359Z 18012KT 18/16 A2997 RMK A01 T01790155  RH  086%=      5-min Rain = 0
KCL2 221400Z 18016KT 18/16 A2997 RMK A01 T01800156  RH  085%=      5-min Rain = 0
KCL2 221401Z 18015KT 18/16 A2997 RMK A01 T01810155  RH  084%=      5-min Rain = 0
KCL2 221402Z 19013KT 18/16 A2997 RMK A01 T01820155  RH  084%=      5-min Rain = 0
KCL2 221403Z 18014KT 18/16 A2998 RMK A01 T01840156  RH  084%=      5-min Rain = 0
KCL2 221404Z 19011KT 19/16 A2998 RMK A01 T01850156  RH  083%=      5-min Rain = 0
KCL2 221405Z 18010KT 19/16 A2998 RMK A01 T01860157  RH  083%=      5-min Rain = 0
KCL2 221406Z 19012KT 19/16 A2998 RMK A01 T01880157  RH  082%=      5-min Rain = 0
KCL2 221407Z 18014KT 19/16 A2998 RMK A01 T01880157  RH  082%=      5-min Rain = 0
KCL2 221408Z 20015KT 19/16 A2998 RMK A01 T01880157  RH  082%=      5-min Rain = 0
KCL2 221409Z 19017KT 19/15 A2997 RMK A01 T01880154  RH  081%=      5-min Rain = 0
KCL2 221410Z 19017KT 19/15 A2997 RMK A01 T01850154  RH  082%=      5-min Rain = 0
KCL2 221411Z 18016KT 18/15 A2997 RMK A01 T01830153  RH  083%=      5-min Rain = 0
KCL2 221412Z 19016KT 18/15 A2998 RMK A01 T01820153  RH  083%=      5-min Rain = 0
KCL2 221413Z 19014KT 18/15 A2998 RMK A01 T01810153  RH  084%=      5-min Rain = 0
KCL2 221414Z 18015KT 18/15 A2998 RMK A01 T01820154  RH  084%=      5-min Rain = 0
KCL2 221415Z 18012KT 18/15 A2998 RMK A01 T01820154  RH  084%=      5-min Rain = 0
KCL2 221416Z 18012KT 18/15 A2998 RMK A01 T01820154  RH  084%=      5-min Rain = 0
KCL2 221417Z 18013KT 18/15 A2998 RMK A01 T01820153  RH  083%=      5-min Rain = 0
KCL2 221418Z 18009KT 18/15 A2998 RMK A01 T01820154  RH  083%=      5-min Rain = 0
KCL2 221419Z 18010G16KT 18/16 A2998 RMK A01 T01830155  RH  084%=      5-min Rain = 0
KCL2 221420Z 19014KT 19/16 A2998 RMK A01 T01850155  RH  083%=      5-min Rain = 0
KCL2 221421Z 19012KT 19/16 A2998 RMK A01 T01850155  RH  082%=      5-min Rain = 0
KCL2 221422Z 18012G18KT 19/16 A2998 RMK A01 T01860155  RH  082%=      5-min Rain = 0
KCL2 221423Z 19014KT 19/16 A2998 RMK A01 T01870156  RH  082%=      5-min Rain = 0
KCL2 221424Z 20015KT 19/16 A2998 RMK A01 T01880155  RH  081%=      5-min Rain = 0
KCL2 221425Z 19015KT 19/15 A2998 RMK A01 T01880154  RH  081%=      5-min Rain = 0
KCL2 221426Z 20011KT 19/16 A2998 RMK A01 T01870155  RH  081%=      5-min Rain = 0
KCL2 221427Z 19009KT 19/16 A2998 RMK A01 T01880157  RH  082%=      5-min Rain = 0
KCL2 221428Z 19011KT 19/16 A2998 RMK A01 T01900157  RH  081%=      5-min Rain = 0
KCL2 221429Z 18014G19KT 19/16 A2998 RMK A01 T01910156  RH  080%=      5-min Rain = 0
KCL2 221430Z 19017KT 19/15 A2998 RMK A01 T01900154  RH  080%=      5-min Rain = 0
KCL2 221431Z 19014KT 19/16 A2998 RMK A01 T01890155  RH  081%=      5-min Rain = 0
KCL2 221432Z 18016KT 19/15 A2998 RMK A01 T01880154  RH  080%=      5-min Rain = 0
KCL2 221433Z 19016KT 19/15 A2998 RMK A01 T01880154  RH  080%=      5-min Rain = 0
KCL2 221434Z 19017KT 19/15 A2998 RMK A01 T01890154  RH  080%=      5-min Rain = 0
KCL2 221435Z 19013KT 19/16 A2998 RMK A01 T01890155  RH  081%=      5-min Rain = 0
KCL2 221436Z 19013KT 19/16 A2998 RMK A01 T01900155  RH  080%=      5-min Rain = 0
KCL2 221437Z 20016KT 19/15 A2998 RMK A01 T01900154  RH  080%=      5-min Rain = 0
KCL2 221438Z 19013KT 19/16 A2998 RMK A01 T01900155  RH  080%=      5-min Rain = 0
KCL2 221439Z 18017KT 19/15 A2998 RMK A01 T01890154  RH  080%=      5-min Rain = 0
KCL2 221440Z 19016KT 19/15 A2998 RMK A01 T01890154  RH  080%=      5-min Rain = 0
KCL2 221441Z 18012KT 19/15 A2998 RMK A01 T01890154  RH  080%=      5-min Rain = 0
KCL2 221442Z 19016KT 19/16 A2998 RMK A01 T01900155  RH  080%=      5-min Rain = 0
KCL2 221443Z 19013KT 19/15 A2998 RMK A01 T01910154  RH  079%=      5-min Rain = 0
KCL2 221444Z 18013KT 19/16 A2999 RMK A01 T01920156  RH  079%=      5-min Rain = 0
KCL2 221445Z 18014KT 19/16 A2998 RMK A01 T01940155  RH  078%=      5-min Rain = 0
KCL2 221446Z 19013KT 19/16 A2998 RMK A01 T01940155  RH  078%=      5-min Rain = 0
KCL2 221447Z 19012KT 19/16 A2999 RMK A01 T01940157  RH  079%=      5-min Rain = 0
KCL2 221448Z 19015G24KT 20/16 A2998 RMK A01 T01970157  RH  078%=      5-min Rain = 0
KCL2 221449Z 18016KT 20/16 A2998 RMK A01 T01970156  RH  077%=      5-min Rain = 0
KCL2 221450Z 18013G18KT 20/16 A2998 RMK A01 T01970157  RH  078%=      5-min Rain = 0
KCL2 221451Z 19017KT 20/16 A2998 RMK A01 T01970156  RH  077%=      5-min Rain = 0
KCL2 221452Z 19015G20KT 20/15 A2998 RMK A01 T01970154  RH  076%=      5-min Rain = 0
KCL2 221453Z 19012KT 20/16 A2999 RMK A01 T01960156  RH  077%=      5-min Rain = 0
KCL2 221454Z 20012KT 20/16 A2999 RMK A01 T01970156  RH  077%=      5-min Rain = 0
KCL2 221455Z 20012KT 20/16 A2999 RMK A01 T01980156  RH  077%=      5-min Rain = 0
KCL2 221456Z 18009KT 20/16 A2999 RMK A01 T01970156  RH  077%=      5-min Rain = 0
KCL2 221457Z 17012G17KT 20/16 A2999 RMK A01 T01990158  RH  077%=      5-min Rain = 0
KCL2 221458Z 18014KT 20/16 A2999 RMK A01 T01990155  RH  076%=      5-min Rain = 0
KCL2 221459Z 19013KT 20/16 A2999 RMK A01 T01980156  RH  077%=      5-min Rain = 0
KCL2 221500Z 18013G18KT 20/16 A2999 RMK A01 T01980155  RH  076%=      5-min Rain = 0
KCL2 221501Z 19011KT 20/16 A2999 RMK A01 T01970155  RH  077%=      5-min Rain = 0
KCL2 221502Z 19012KT 20/16 A2999 RMK A01 T01970156  RH  077%=      5-min Rain = 0
KCL2 221503Z 19015KT 20/16 A2999 RMK A01 T01990157  RH  076%=      5-min Rain = 0
KCL2 221504Z 18014KT 20/16 A2999 RMK A01 T01990155  RH  075%=      5-min Rain = 0
KCL2 221505Z 19011KT 20/16 A2999 RMK A01 T01980155  RH  076%=      5-min Rain = 0
KCL2 221506Z 19013KT 20/16 A2999 RMK A01 T01990156  RH  076%=      5-min Rain = 0
KCL2 221507Z 19015KT 20/16 A2999 RMK A01 T01990155  RH  076%=      5-min Rain = 0
KCL2 221508Z 19012KT 20/16 A2999 RMK A01 T01980155  RH  076%=      5-min Rain = 0
KCL2 221509Z 20012KT 20/16 A2999 RMK A01 T01970156  RH  077%=      5-min Rain = 0
KCL2 221510Z 19010KT 20/16 A2999 RMK A01 T01970155  RH  077%=      5-min Rain = 0
KCL2 221511Z 18008KT 20/16 A2999 RMK A01 T01970156  RH  077%=      5-min Rain = 0
KCL2 221512Z 17007KT 20/16 A2999 RMK A01 T01990158  RH  077%=      5-min Rain = 0
KCL2 221513Z 17013KT 20/16 A2999 RMK A01 T01990156  RH  076%=      5-min Rain = 0
KCL2 221514Z 18010KT 20/16 A2999 RMK A01 T01990156  RH  076%=      5-min Rain = 0
KCL2 221515Z 19010KT 20/16 A2999 RMK A01 T01990157  RH  077%=      5-min Rain = 0
KCL2 221516Z 19010KT 20/16 A2999 RMK A01 T02000156  RH  076%=      5-min Rain = 0
KCL2 221517Z 18013KT 20/16 A30 RMK A01 T02000156  RH  075%=      5-min Rain = 0
KCL2 221518Z 19011KT 20/16 A30 RMK A01 T02000156  RH  075%=      5-min Rain = 0
KCL2 221519Z 19011KT 20/16 A30 RMK A01 T02010155  RH  075%=      5-min Rain = 0
KCL2 221520Z 20011KT 20/16 A30 RMK A01 T02010156  RH  076%=      5-min Rain = 0
KCL2 221521Z 20009KT 20/16 A30 RMK A01 T02010156  RH  075%=      5-min Rain = 0
KCL2 221522Z 19007KT 20/16 A30 RMK A01 T02010158  RH  076%=      5-min Rain = 0
KCL2 221523Z 17008G13KT 20/16 A30 RMK A01 T02030158  RH  075%=      5-min Rain = 0
KCL2 221524Z 16008KT 20/16 A30 RMK A01 T02040157  RH  074%=      5-min Rain = 0
KCL2 221525Z 18006KT 20/16 A3001 RMK A01 T02030157  RH  075%=      5-min Rain = 0
KCL2 221526Z 19008KT 20/16 A3001 RMK A01 T02040158  RH  075%=      5-min Rain = 0
KCL2 221527Z 19006KT 20/16 A3001 RMK A01 T02040157  RH  074%=      5-min Rain = 0
KCL2 221528Z 20006KT 21/16 A3001 RMK A01 T02050159  RH  075%=      5-min Rain = 0
KCL2 221529Z 21008KT 21/16 A3001 RMK A01 T02060158  RH  074%=      5-min Rain = 0
KCL2 221530Z 20008KT 21/16 A3002 RMK A01 T02060156  RH  073%=      5-min Rain = 0
KCL2 221531Z 20006KT 21/16 A3002 RMK A01 T02050157  RH  074%=      5-min Rain = 0
KCL2 221532Z 21007KT 20/16 A3002 RMK A01 T02040157  RH  074%=      5-min Rain = 0
KCL2 221533Z 21006KT 20/16 A3002 RMK A01 T02040157  RH  074%=      5-min Rain = 0
KCL2 221534Z 18008KT 20/16 A3002 RMK A01 T02040156  RH  074%=      5-min Rain = 0
KCL2 221535Z 18006KT 20/16 A3002 RMK A01 T02030155  RH  074%=      5-min Rain = 0
KCL2 221536Z 19005KT 20/16 A3002 RMK A01 T02030157  RH  075%=      5-min Rain = 0
KCL2 221537Z 16003KT 20/16 A3002 RMK A01 T02040155  RH  074%=      5-min Rain = 0
KCL2 221538Z 17002KT 21/16 A3002 RMK A01 T02050156  RH  074%=      5-min Rain = 0
KCL2 221539Z 18008KT 21/16 A3002 RMK A01 T02060157  RH  074%=      5-min Rain = 0
KCL2 221540Z 18006KT 21/16 A3002 RMK A01 T02060156  RH  073%=      5-min Rain = 0
KCL2 221541Z 18007KT 21/16 A3002 RMK A01 T02060159  RH  074%=      5-min Rain = 0
KCL2 221542Z 18008KT 21/16 A3002 RMK A01 T02070157  RH  073%=      5-min Rain = 0
KCL2 221543Z 18008KT 21/16 A3002 RMK A01 T02070157  RH  073%=      5-min Rain = 0
KCL2 221544Z 17007KT 21/16 A3002 RMK A01 T02060157  RH  073%=      5-min Rain = 0
KCL2 221545Z 17007KT 21/16 A3002 RMK A01 T02060157  RH  073%=      5-min Rain = 0
KCL2 221546Z 16008KT 21/16 A3002 RMK A01 T02060156  RH  073%=      5-min Rain = 0
KCL2 221547Z 16008KT 21/16 A3002 RMK A01 T02050157  RH  073%=      5-min Rain = 0
KCL2 221548Z 16008KT 21/16 A3002 RMK A01 T02050157  RH  074%=      5-min Rain = 0
KCL2 221549Z 17007KT 21/16 A3002 RMK A01 T02050156  RH  073%=      5-min Rain = 0
KCL2 221550Z 17007KT 21/16 A3002 RMK A01 T02050157  RH  074%=      5-min Rain = 0
KCL2 221551Z 17008KT 21/16 A3002 RMK A01 T02050157  RH  074%=      5-min Rain = 0
KCL2 221552Z 18008KT 21/16 A3002 RMK A01 T02050156  RH  073%=      5-min Rain = 0
KCL2 221553Z 16006KT 21/16 A3002 RMK A01 T02050156  RH  074%=      5-min Rain = 0
KCL2 221554Z 16005KT 20/16 A3002 RMK A01 T02040156  RH  074%=      5-min Rain = 0
KCL2 221555Z 18008KT 21/16 A3002 RMK A01 T02050157  RH  074%=      5-min Rain = 0
KCL2 221556Z 18006KT 21/16 A3003 RMK A01 T02070160  RH  074%=      5-min Rain = 0
KCL2 221557Z 18007KT 21/16 A3003 RMK A01 T02100160  RH  073%=      5-min Rain = 0
KCL2 221558Z 16006KT 21/16 A3003 RMK A01 T02120158  RH  071%=      5-min Rain = 0
KCL2 221559Z 16006KT 21/16 A3003 RMK A01 T02110158  RH  071%=      5-min Rain = 0
KCL2 221600Z 20007KT 21/16 A3003 RMK A01 T02100157  RH  072%=      5-min Rain = 0
KCL2 221601Z 21006KT 21/16 A3003 RMK A01 T02080157  RH  073%=      5-min Rain = 0
KCL2 221602Z 18007KT 21/16 A3003 RMK A01 T02070157  RH  073%=      5-min Rain = 0
KCL2 221603Z 17008KT 21/16 A3003 RMK A01 T02060156  RH  073%=      5-min Rain = 0
KCL2 221604Z 17006KT 21/16 A3003 RMK A01 T02060156  RH  073%=      5-min Rain = 0
KCL2 221605Z 20007KT 21/16 A3003 RMK A01 T02060159  RH  074%=      5-min Rain = 0
KCL2 221606Z 20007KT 21/16 A3003 RMK A01 T02080160  RH  074%=      5-min Rain = 0
KCL2 221607Z 17007KT 21/16 A3003 RMK A01 T02120163  RH  073%=      5-min Rain = 0
KCL2 221608Z 17008KT 21/16 A3003 RMK A01 T02140159  RH  071%=      5-min Rain = 0
KCL2 221609Z 16006KT 22/16 A3003 RMK A01 T02150160  RH  071%=      5-min Rain = 0
KCL2 221610Z 17008KT 22/16 A3002 RMK A01 T02150160  RH  071%=      5-min Rain = 0
KCL2 221611Z 16010KT 22/16 A3002 RMK A01 T02160160  RH  070%=      5-min Rain = 0
KCL2 221612Z 17007KT 22/16 A3002 RMK A01 T02170161  RH  071%=      5-min Rain = 0
KCL2 221613Z 16008KT 22/16 A3002 RMK A01 T02180160  RH  069%=      5-min Rain = 0
KCL2 221614Z 17007KT 22/16 A3002 RMK A01 T02180161  RH  070%=      5-min Rain = 0
KCL2 221615Z 16006KT 22/16 A3003 RMK A01 T02190160  RH  069%=      5-min Rain = 0
KCL2 221616Z 15007KT 22/16 A3003 RMK A01 T02200160  RH  069%=      5-min Rain = 0
KCL2 221617Z 17006KT 22/16 A3003 RMK A01 T02190162  RH  070%=      5-min Rain = 0
KCL2 221618Z 20008KT 22/16 A3003 RMK A01 T02220164  RH  070%=      5-min Rain = 0
KCL2 221619Z 23005KT 22/16 A3003 RMK A01 T02230159  RH  067%=      5-min Rain = 0
KCL2 221620Z 20004KT 22/16 A3003 RMK A01 T02180157  RH  068%=      5-min Rain = 0
KCL2 221621Z 18005KT 22/16 A3003 RMK A01 T02160161  RH  071%=      5-min Rain = 0
KCL2 221622Z 14005KT 22/16 A3003 RMK A01 T02180160  RH  070%=      5-min Rain = 0
KCL2 221623Z 12004KT 22/16 A3003 RMK A01 T02180157  RH  068%=      5-min Rain = 0
KCL2 221624Z 15003KT 22/16 A3003 RMK A01 T02160160  RH  070%=      5-min Rain = 0
KCL2 221625Z 15006KT 22/16 A3003 RMK A01 T02170161  RH  070%=      5-min Rain = 0
KCL2 221626Z 17006KT 22/16 A3003 RMK A01 T02200164  RH  070%=      5-min Rain = 0
KCL2 221627Z 20007KT 22/16 A3003 RMK A01 T02220161  RH  068%=      5-min Rain = 0
KCL2 221628Z 20008KT 22/16 A3003 RMK A01 T02230162  RH  068%=      5-min Rain = 0
KCL2 221629Z 19007KT 22/16 A3002 RMK A01 T02240162  RH  068%=      5-min Rain = 0
KCL2 221630Z 17010KT 23/17 A3002 RMK A01 T02270167  RH  069%=      5-min Rain = 0
KCL2 221631Z 16008KT 23/16 A3002 RMK A01 T02270160  RH  066%=      5-min Rain = 0
KCL2 221632Z 16010KT 23/16 A3002 RMK A01 T02250163  RH  068%=      5-min Rain = 0
KCL2 221633Z 16008KT 23/16 A3002 RMK A01 T02260160  RH  066%=      5-min Rain = 0
KCL2 221634Z 17004KT 23/16 A3002 RMK A01 T02250159  RH  066%=      5-min Rain = 0
KCL2 221635Z 17004KT 22/16 A3002 RMK A01 T02220160  RH  068%=      5-min Rain = 0
KCL2 221636Z 16008KT 22/16 A3003 RMK A01 T02220161  RH  068%=      5-min Rain = 0
KCL2 221637Z 17006KT 22/16 A3002 RMK A01 T02220160  RH  068%=      5-min Rain = 0
KCL2 221638Z 21006KT 22/16 A3003 RMK A01 T02230162  RH  068%=      5-min Rain = 0
KCL2 221639Z 22006KT 22/16 A3003 RMK A01 T02240158  RH  066%=      5-min Rain = 0
KCL2 221640Z 22004KT 22/16 A3003 RMK A01 T02220158  RH  067%=      5-min Rain = 0
KCL2 221641Z 26002KT 22/16 A3003 RMK A01 T02200157  RH  068%=      5-min Rain = 0
KCL2 221642Z 28003KT 22/16 A3003 RMK A01 T02210160  RH  068%=      5-min Rain = 0
KCL2 221643Z 25001KT 22/16 A3003 RMK A01 T02240163  RH  068%=      5-min Rain = 0
KCL2 221644Z 14003KT 23/16 A3003 RMK A01 T02260161  RH  067%=      5-min Rain = 0
KCL2 221645Z 15004KT 23/16 A3003 RMK A01 T02270160  RH  066%=      5-min Rain = 0
KCL2 221646Z 16008KT 23/16 A3003 RMK A01 T02250160  RH  066%=      5-min Rain = 0
KCL2 221647Z 15004KT 22/16 A3003 RMK A01 T02210157  RH  067%=      5-min Rain = 0
KCL2 221648Z 15003KT 22/16 A3003 RMK A01 T02190159  RH  069%=      5-min Rain = 0
KCL2 221649Z 19003KT 22/16 A3003 RMK A01 T02200159  RH  069%=      5-min Rain = 0
KCL2 221650Z 18002KT 22/16 A3003 RMK A01 T02210161  RH  069%=      5-min Rain = 0
KCL2 221651Z 14002KT 22/16 A3003 RMK A01 T02240162  RH  068%=      5-min Rain = 0
KCL2 221652Z 21005KT 23/16 A3003 RMK A01 T02260163  RH  067%=      5-min Rain = 0
KCL2 221653Z 20008KT 23/16 A3003 RMK A01 T02280163  RH  067%=      5-min Rain = 0
KCL2 221654Z 20009KT 23/16 A3002 RMK A01 T02290163  RH  066%=      5-min Rain = 0
KCL2 221655Z 19009KT 23/16 A3002 RMK A01 T02300163  RH  066%=      5-min Rain = 0
KCL2 221656Z 19009KT 23/16 A3002 RMK A01 T02300161  RH  065%=      5-min Rain = 0
KCL2 221657Z 20007KT 23/16 A3002 RMK A01 T02280164  RH  067%=      5-min Rain = 0
KCL2 221658Z 21006KT 23/17 A3002 RMK A01 T02320167  RH  067%=      5-min Rain = 0
KCL2 221659Z 21006KT 24/17 A3002 RMK A01 T02360166  RH  065%=      5-min Rain = 0
KCL2 221700Z 20006KT 23/16 A3002 RMK A01 T02330160  RH  064%=      5-min Rain = 0
KCL2 221701Z 19009KT 23/16 A3002 RMK A01 T02300162  RH  066%=      5-min Rain = 0
KCL2 221702Z 18007KT 23/16 A3002 RMK A01 T02290163  RH  067%=      5-min Rain = 0
KCL2 221703Z 18007KT 23/16 A3002 RMK A01 T02290164  RH  067%=      5-min Rain = 0
KCL2 221704Z 16007KT 23/16 A3002 RMK A01 T02310162  RH  065%=      5-min Rain = 0
KCL2 221705Z 17009KT 23/16 A3002 RMK A01 T02290162  RH  066%=      5-min Rain = 0
KCL2 221706Z 18007KT 23/16 A3002 RMK A01 T02270164  RH  068%=      5-min Rain = 0
KCL2 221707Z 18008KT 23/16 A3002 RMK A01 T02290164  RH  067%=      5-min Rain = 0
KCL2 221708Z 19010KT 23/17 A3002 RMK A01 T02330167  RH  067%=      5-min Rain = 0
KCL2 221709Z 19008KT 23/16 A3002 RMK A01 T02340164  RH  065%=      5-min Rain = 0
KCL2 221710Z 19010KT 23/17 A3002 RMK A01 T02340166  RH  065%=      5-min Rain = 0
KCL2 221711Z 21007KT 23/16 A3002 RMK A01 T02330163  RH  064%=      5-min Rain = 0
KCL2 221712Z 18006KT 23/16 A3002 RMK A01 T02310163  RH  066%=      5-min Rain = 0
KCL2 221713Z 15005KT 23/16 A3002 RMK A01 T02290163  RH  066%=      5-min Rain = 0
KCL2 221714Z 13005KT 23/16 A3002 RMK A01 T02280162  RH  066%=      5-min Rain = 0
KCL2 221715Z 14007KT 23/17 A3002 RMK A01 T02280166  RH  068%=      5-min Rain = 0
KCL2 221716Z 19009KT 23/17 A3002 RMK A01 T02330169  RH  067%=      5-min Rain = 0
KCL2 221717Z 21008KT 24/16 A3002 RMK A01 T02370164  RH  063%=      5-min Rain = 0
KCL2 221718Z 19009KT 24/17 A3002 RMK A01 T02360165  RH  064%=      5-min Rain = 0
KCL2 221719Z 18008KT 24/16 A3002 RMK A01 T02350164  RH  064%=      5-min Rain = 0
KCL2 221720Z 18005KT 23/16 A3002 RMK A01 T02330163  RH  065%=      5-min Rain = 0
KCL2 221721Z 16005KT 23/16 A3002 RMK A01 T02310163  RH  065%=      5-min Rain = 0
KCL2 221722Z 14004KT 23/16 A3003 RMK A01 T02290161  RH  065%=      5-min Rain = 0
KCL2 221723Z 13003KT 23/16 A3002 RMK A01 T02270160  RH  066%=      5-min Rain = 0
KCL2 221724Z 13005KT 23/16 A3002 RMK A01 T02270161  RH  066%=      5-min Rain = 0
KCL2 221725Z 14005KT 23/16 A3002 RMK A01 T02270163  RH  067%=      5-min Rain = 0
KCL2 221726Z 17007KT 23/17 A3002 RMK A01 T02310167  RH  068%=      5-min Rain = 0
KCL2 221727Z 21006KT 23/16 A3002 RMK A01 T02340164  RH  065%=      5-min Rain = 0
KCL2 221728Z 24003KT 23/16 A3002 RMK A01 T02320159  RH  063%=      5-min Rain = 0
KCL2 221729Z 16007KT 23/16 A3002 RMK A01 T02300164  RH  066%=      5-min Rain = 0
KCL2 221730Z 20007KT 23/16 A3002 RMK A01 T02330164  RH  065%=      5-min Rain = 0
KCL2 221731Z 18007KT 23/16 A3002 RMK A01 T02330163  RH  065%=      5-min Rain = 0
KCL2 221732Z 16009KT 23/17 A3002 RMK A01 T02320165  RH  066%=      5-min Rain = 0
KCL2 221733Z 16008KT 23/16 A3002 RMK A01 T02330163  RH  065%=      5-min Rain = 0
KCL2 221734Z 17007KT 23/16 A3002 RMK A01 T02330164  RH  065%=      5-min Rain = 0
KCL2 221735Z 19004KT 23/16 A3002 RMK A01 T02330163  RH  065%=      5-min Rain = 0
KCL2 221736Z 20004KT 23/16 A3002 RMK A01 T02330163  RH  065%=      5-min Rain = 0
KCL2 221737Z 18002KT 23/16 A3002 RMK A01 T02300160  RH  064%=      5-min Rain = 0
KCL2 221738Z 12004KT 23/16 A3002 RMK A01 T02300163  RH  066%=      5-min Rain = 0
KCL2 221739Z 17008KT 23/17 A3002 RMK A01 T02340167  RH  066%=      5-min Rain = 0
KCL2 221740Z 17009KT 24/17 A3002 RMK A01 T02380165  RH  064%=      5-min Rain = 0
KCL2 221741Z 17008KT 24/16 A3002 RMK A01 T02380164  RH  063%=      5-min Rain = 0
KCL2 221742Z 16004KT 24/16 A3002 RMK A01 T02360161  RH  063%=      5-min Rain = 0
KCL2 221743Z 14002KT 23/16 A3002 RMK A01 T02340160  RH  063%=      5-min Rain = 0
KCL2 221744Z 15003KT 23/16 A3002 RMK A01 T02340161  RH  063%=      5-min Rain = 0
KCL2 221745Z 17006KT 24/16 A3002 RMK A01 T02350163  RH  064%=      5-min Rain = 0
KCL2 221746Z 18006KT 24/17 A3002 RMK A01 T02370165  RH  064%=      5-min Rain = 0
KCL2 221747Z 20005KT 24/16 A3002 RMK A01 T02370161  RH  062%=      5-min Rain = 0
KCL2 221748Z 15006KT 24/16 A3002 RMK A01 T02350163  RH  064%=      5-min Rain = 0
KCL2 221749Z 14005KT 24/17 A3001 RMK A01 T02350166  RH  065%=      5-min Rain = 0
KCL2 221750Z 16006KT 24/16 A3001 RMK A01 T02370164  RH  064%=      5-min Rain = 0
KCL2 221751Z 15007KT 24/17 A3001 RMK A01 T02370166  RH  064%=      5-min Rain = 0
KCL2 221752Z 14008G14KT 24/17 A3001 RMK A01 T02400169  RH  065%=      5-min Rain = 0
KCL2 221753Z 16010G15KT 24/17 A3001 RMK A01 T02430168  RH  063%=      5-min Rain = 0
KCL2 221754Z 15008KT 24/17 A3001 RMK A01 T02420166  RH  062%=      5-min Rain = 0
KCL2 221755Z 13006KT 24/16 A3001 RMK A01 T02400163  RH  062%=      5-min Rain = 0
KCL2 221756Z 15007KT 24/16 A3001 RMK A01 T02370164  RH  064%=      5-min Rain = 0
KCL2 221757Z 12007KT 24/17 A3001 RMK A01 T02360167  RH  065%=      5-min Rain = 0
KCL2 221758Z 10008KT 24/17 A3001 RMK A01 T02370167  RH  065%=      5-min Rain = 0
KCL2 221759Z 11010KT 24/17 A3001 RMK A01 T02360166  RH  065%=      5-min Rain = 0
KCL2 221800Z 11009KT 23/17 A3001 RMK A01 T02330166  RH  066%=      5-min Rain = 0
KCL2 221801Z 10006KT 23/17 A3001 RMK A01 T02340165  RH  065%=      5-min Rain = 0
KCL2 221802Z 12007KT 23/17 A3002 RMK A01 T02340166  RH  065%=      5-min Rain = 0
KCL2 221803Z 15009KT 23/17 A3002 RMK A01 T02340167  RH  066%=      5-min Rain = 0
KCL2 221804Z 18009KT 24/16 A3002 RMK A01 T02350162  RH  064%=      5-min Rain = 0
KCL2 221805Z 19007KT 24/16 A3002 RMK A01 T02350162  RH  064%=      5-min Rain = 0
KCL2 221806Z 20007KT 23/16 A3002 RMK A01 T02340162  RH  064%=      5-min Rain = 0
KCL2 221807Z 18006KT 23/16 A3002 RMK A01 T02330161  RH  064%=      5-min Rain = 0
KCL2 221808Z 14007KT 23/16 A3002 RMK A01 T02310164  RH  066%=      5-min Rain = 0
KCL2 221809Z 16008KT 23/16 A3002 RMK A01 T02330162  RH  064%=      5-min Rain = 0
KCL2 221810Z 16008KT 23/16 A3002 RMK A01 T02330164  RH  065%=      5-min Rain = 0
KCL2 221811Z 18008KT 24/16 A3002 RMK A01 T02350163  RH  064%=      5-min Rain = 0
KCL2 221812Z 20008KT 24/16 A3002 RMK A01 T02350163  RH  064%=      5-min Rain = 0
KCL2 221813Z 20006KT 23/16 A3002 RMK A01 T02330161  RH  064%=      5-min Rain = 0
KCL2 221814Z 20006KT 23/16 A3002 RMK A01 T02310162  RH  065%=      5-min Rain = 0
KCL2 221815Z 19006KT 23/16 A3002 RMK A01 T02310161  RH  065%=      5-min Rain = 0
KCL2 221816Z 15005KT 23/16 A3002 RMK A01 T02300164  RH  066%=      5-min Rain = 0
KCL2 221817Z 11003KT 23/16 A3002 RMK A01 T02310161  RH  065%=      5-min Rain = 0
KCL2 221818Z 18006KT 23/17 A3002 RMK A01 T02320166  RH  066%=      5-min Rain = 0
KCL2 221819Z 16006KT 23/16 A3002 RMK A01 T02340164  RH  065%=      5-min Rain = 0
KCL2 221820Z 17008KT 24/17 A3002 RMK A01 T02370166  RH  064%=      5-min Rain = 0
KCL2 221821Z 17007KT 24/16 A3002 RMK A01 T02390164  RH  063%=      5-min Rain = 0
KCL2 221822Z 15008KT 24/16 A3002 RMK A01 T02380163  RH  063%=      5-min Rain = 0
KCL2 221823Z 16005KT 24/16 A3002 RMK A01 T02350161  RH  063%=      5-min Rain = 0
KCL2 221824Z 13005KT 24/16 A3002 RMK A01 T02350164  RH  065%=      5-min Rain = 0
KCL2 221825Z 13005KT 24/17 A3001 RMK A01 T02360166  RH  065%=      5-min Rain = 0
KCL2 221826Z 15006KT 24/17 A3002 RMK A01 T02400168  RH  064%=      5-min Rain = 0
KCL2 221827Z 18006KT 24/17 A3002 RMK A01 T02430165  RH  062%=      5-min Rain = 0
KCL2 221828Z 19005KT 24/16 A3001 RMK A01 T02420164  RH  062%=      5-min Rain = 0
KCL2 221829Z 13007KT 24/17 A3001 RMK A01 T02420167  RH  063%=      5-min Rain = 0
KCL2 221830Z 15008KT 24/17 A3002 RMK A01 T02430165  RH  062%=      5-min Rain = 0
KCL2 221831Z 15006KT 24/16 A3002 RMK A01 T02410162  RH  061%=      5-min Rain = 0
KCL2 221832Z 17005KT 24/16 A3002 RMK A01 T02380162  RH  063%=      5-min Rain = 0
KCL2 221833Z 13006KT 24/17 A3001 RMK A01 T02370165  RH  064%=      5-min Rain = 0
KCL2 221834Z 10007KT 24/17 A3002 RMK A01 T02380167  RH  064%=      5-min Rain = 0
KCL2 221835Z 12009KT 24/16 A3001 RMK A01 T02380164  RH  063%=      5-min Rain = 0
KCL2 221836Z 12007KT 24/16 A3001 RMK A01 T02360164  RH  064%=      5-min Rain = 0
KCL2 221837Z 15008KT 24/17 A3001 RMK A01 T02350165  RH  065%=      5-min Rain = 0
KCL2 221838Z 18008KT 24/16 A3001 RMK A01 T02360163  RH  064%=      5-min Rain = 0
KCL2 221839Z 16007KT 24/16 A3001 RMK A01 T02370163  RH  063%=      5-min Rain = 0
KCL2 221840Z 16007KT 24/17 A3001 RMK A01 T02370165  RH  064%=      5-min Rain = 0
KCL2 221841Z 14011KT 24/17 A3001 RMK A01 T02390165  RH  063%=      5-min Rain = 0
KCL2 221842Z 13011KT 24/17 A3001 RMK A01 T02410167  RH  063%=      5-min Rain = 0
KCL2 221843Z 13010KT 24/16 A3001 RMK A01 T02410164  RH  062%=      5-min Rain = 0
KCL2 221844Z 14007KT 24/16 A3001 RMK A01 T02390163  RH  062%=      5-min Rain = 0
KCL2 221845Z 16009KT 24/17 A3001 RMK A01 T02380165  RH  063%=      5-min Rain = 0
KCL2 221846Z 17008KT 24/16 A3001 RMK A01 T02390164  RH  063%=      5-min Rain = 0
KCL2 221847Z 17007KT 24/16 A3001 RMK A01 T02390162  RH  062%=      5-min Rain = 0
KCL2 221848Z 16005KT 24/17 A3001 RMK A01 T02380165  RH  064%=      5-min Rain = 0
KCL2 221849Z 13009KT 24/17 A3001 RMK A01 T02390170  RH  065%=      5-min Rain = 0
KCL2 221850Z 13010KT 24/17 A3001 RMK A01 T02400166  RH  063%=      5-min Rain = 0
KCL2 221851Z 13009KT 24/16 A3001 RMK A01 T02370164  RH  063%=      5-min Rain = 0
KCL2 221852Z 14007KT 24/17 A3001 RMK A01 T02350166  RH  065%=      5-min Rain = 0
KCL2 221853Z 13007KT 24/17 A3001 RMK A01 T02360165  RH  064%=      5-min Rain = 0
KCL2 221854Z 12005KT 24/16 A3001 RMK A01 T02360163  RH  064%=      5-min Rain = 0
KCL2 221855Z 14004KT 24/17 A3001 RMK A01 T02360165  RH  065%=      5-min Rain = 0
KCL2 221856Z 17004KT 24/16 A3001 RMK A01 T02360163  RH  064%=      5-min Rain = 0
KCL2 221857Z 16003KT 24/16 A3001 RMK A01 T02360164  RH  064%=      5-min Rain = 0
KCL2 221858Z 12004KT 24/17 A3001 RMK A01 T02380167  RH  064%=      5-min Rain = 0
KCL2 221859Z 16007KT 24/17 A3001 RMK A01 T02410167  RH  063%=      5-min Rain = 0
KCL2 221900Z 15008KT 24/17 A3001 RMK A01 T02420166  RH  062%=      5-min Rain = 0
KCL2 221901Z 11010KT 24/17 A3001 RMK A01 T02430169  RH  063%=      5-min Rain = 0
KCL2 221902Z 11008KT 24/17 A3001 RMK A01 T02430167  RH  063%=      5-min Rain = 0
KCL2 221903Z 10008KT 24/17 A3001 RMK A01 T02420168  RH  063%=      5-min Rain = 0
KCL2 221904Z 11007KT 24/17 A3001 RMK A01 T02420169  RH  064%=      5-min Rain = 0
KCL2 221905Z 13009KT 24/17 A3001 RMK A01 T02420169  RH  064%=      5-min Rain = 0
KCL2 221906Z 15006KT 24/17 A3001 RMK A01 T02420166  RH  062%=      5-min Rain = 0
KCL2 221907Z 15010KT 24/17 A3001 RMK A01 T02430167  RH  063%=      5-min Rain = 0
KCL2 221908Z 15011KT 24/17 A3001 RMK A01 T02430166  RH  062%=      5-min Rain = 0
KCL2 221909Z 16008KT 24/17 A3001 RMK A01 T02440165  RH  061%=      5-min Rain = 0
KCL2 221910Z 17005KT 24/16 A3001 RMK A01 T02420163  RH  061%=      5-min Rain = 0
KCL2 221911Z 17007KT 24/17 A3001 RMK A01 T02410165  RH  062%=      5-min Rain = 0
KCL2 221912Z 15005KT 24/16 A3001 RMK A01 T02420163  RH  061%=      5-min Rain = 0
KCL2 221913Z 14004KT 24/16 A3001 RMK A01 T02410164  RH  062%=      5-min Rain = 0
KCL2 221914Z 14005KT 24/17 A3001 RMK A01 T02420165  RH  062%=      5-min Rain = 0
KCL2 221915Z 15009KT 24/17 A3001 RMK A01 T02420165  RH  062%=      5-min Rain = 0
KCL2 221916Z 15011KT 24/16 A3001 RMK A01 T02420163  RH  061%=      5-min Rain = 0
KCL2 221917Z 15010KT 24/16 A3001 RMK A01 T02410162  RH  061%=      5-min Rain = 0
KCL2 221918Z 15010KT 24/16 A3001 RMK A01 T02400162  RH  061%=      5-min Rain = 0
KCL2 221919Z 16010KT 24/16 A3001 RMK A01 T02390161  RH  062%=      5-min Rain = 0
KCL2 221920Z 16009KT 24/16 A3001 RMK A01 T02380162  RH  062%=      5-min Rain = 0
KCL2 221921Z 15009KT 24/16 A3001 RMK A01 T02380162  RH  062%=      5-min Rain = 0
KCL2 221922Z 14008KT 24/16 A3001 RMK A01 T02380163  RH  063%=      5-min Rain = 0
KCL2 221923Z 14006KT 24/16 A3001 RMK A01 T02380163  RH  063%=      5-min Rain = 0
KCL2 221924Z 13007KT 24/16 A3001 RMK A01 T02380164  RH  063%=      5-min Rain = 0
KCL2 221925Z 14007KT 24/17 A3001 RMK A01 T02390165  RH  063%=      5-min Rain = 0
KCL2 221926Z 15009KT 24/17 A3001 RMK A01 T02400165  RH  063%=      5-min Rain = 0
KCL2 221927Z 15008KT 24/16 A3001 RMK A01 T02410163  RH  062%=      5-min Rain = 0
KCL2 221928Z 13007KT 24/17 A3001 RMK A01 T02400165  RH  063%=      5-min Rain = 0
KCL2 221929Z 12009KT 24/17 A3001 RMK A01 T02410167  RH  063%=      5-min Rain = 0
KCL2 221930Z 15008KT 24/17 A3001 RMK A01 T02420167  RH  063%=      5-min Rain = 0
KCL2 221931Z 16010KT 24/16 A3001 RMK A01 T02420164  RH  062%=      5-min Rain = 0
KCL2 221932Z 14007KT 24/16 A3001 RMK A01 T02420163  RH  062%=      5-min Rain = 0
KCL2 221933Z 14007KT 24/17 A3001 RMK A01 T02430169  RH  063%=      5-min Rain = 0
KCL2 221934Z 13012KT 25/17 A3001 RMK A01 T02460168  RH  062%=      5-min Rain = 0
KCL2 221935Z 13012KT 25/17 A3001 RMK A01 T02450165  RH  061%=      5-min Rain = 0
KCL2 221936Z 14010KT 24/17 A3001 RMK A01 T02430165  RH  062%=      5-min Rain = 0
KCL2 221937Z 17009KT 24/17 A3001 RMK A01 T02420165  RH  062%=      5-min Rain = 0
KCL2 221938Z 17008KT 24/16 A3001 RMK A01 T02430164  RH  061%=      5-min Rain = 0
KCL2 221939Z 17010KT 24/17 A30 RMK A01 T02440165  RH  061%=      5-min Rain = 0
KCL2 221940Z 18008KT 25/17 A30 RMK A01 T02450166  RH  061%=      5-min Rain = 0
KCL2 221941Z 16007KT 25/17 A30 RMK A01 T02460168  RH  062%=      5-min Rain = 0
KCL2 221942Z 15009KT 25/17 A30 RMK A01 T02480167  RH  061%=      5-min Rain = 0
KCL2 221943Z 15007KT 25/17 A30 RMK A01 T02490167  RH  060%=      5-min Rain = 0
KCL2 221944Z 15007KT 25/17 A30 RMK A01 T02500170  RH  061%=      5-min Rain = 0
KCL2 221945Z 15008KT 25/17 A30 RMK A01 T02530173  RH  061%=      5-min Rain = 0
KCL2 221946Z 16010KT 26/17 A30 RMK A01 T02550167  RH  058%=      5-min Rain = 0
KCL2 221947Z 16008KT 26/17 A30 RMK A01 T02550167  RH  058%=      5-min Rain = 0
KCL2 221948Z 14007KT 25/16 A30 RMK A01 T02540164  RH  058%=      5-min Rain = 0
KCL2 221949Z 13009KT 25/17 A30 RMK A01 T02520166  RH  059%=      5-min Rain = 0
KCL2 221950Z 15007KT 25/17 A30 RMK A01 T02510165  RH  059%=      5-min Rain = 0
KCL2 221951Z 12008KT 25/17 A30 RMK A01 T02510168  RH  060%=      5-min Rain = 0
KCL2 221952Z 12009KT 25/17 A30 RMK A01 T02520167  RH  059%=      5-min Rain = 0
KCL2 221953Z 13008KT 25/17 A30 RMK A01 T02510169  RH  060%=      5-min Rain = 0
KCL2 221954Z 13007KT 25/17 A30 RMK A01 T02510166  RH  059%=      5-min Rain = 0
KCL2 221955Z 14008KT 25/17 A30 RMK A01 T02500165  RH  059%=      5-min Rain = 0
KCL2 221956Z 15010KT 25/16 A30 RMK A01 T02500162  RH  058%=      5-min Rain = 0
KCL2 221957Z 15006KT 25/16 A30 RMK A01 T02500161  RH  058%=      5-min Rain = 0
KCL2 221958Z 13005KT 25/16 A30 RMK A01 T02490163  RH  059%=      5-min Rain = 0
KCL2 221959Z 14008KT 25/17 A30 RMK A01 T02510170  RH  061%=      5-min Rain = 0
KCL2 222000Z 12013KT 26/17 A30 RMK A01 T02560169  RH  058%=      5-min Rain = 0
KCL2 222001Z 12011KT 26/17 A30 RMK A01 T02570166  RH  057%=      5-min Rain = 0
KCL2 222002Z 15008KT 26/17 A30 RMK A01 T02550168  RH  059%=      5-min Rain = 0
KCL2 222003Z 14010G15KT 26/17 A2999 RMK A01 T02550167  RH  058%=      5-min Rain = 0
KCL2 222004Z 11009KT 26/17 A30 RMK A01 T02560168  RH  058%=      5-min Rain = 0
KCL2 222005Z 12010KT 25/17 A30 RMK A01 T02540171  RH  060%=      5-min Rain = 0
KCL2 222006Z 12012KT 25/17 A30 RMK A01 T02540168  RH  059%=      5-min Rain = 0
KCL2 222007Z 12010KT 25/17 A30 RMK A01 T02520166  RH  059%=      5-min Rain = 0
KCL2 222008Z 12005KT 25/16 A30 RMK A01 T02490163  RH  059%=      5-min Rain = 0
KCL2 222009Z 12006KT 25/17 A30 RMK A01 T02480171  RH  062%=      5-min Rain = 0
KCL2 222010Z 14007KT 25/17 A30 RMK A01 T02500168  RH  060%=      5-min Rain = 0
KCL2 222011Z 16008KT 25/17 A30 RMK A01 T02520168  RH  059%=      5-min Rain = 0
KCL2 222012Z 12008KT 26/17 A30 RMK A01 T02550169  RH  059%=      5-min Rain = 0
KCL2 222013Z 13011KT 26/17 A30 RMK A01 T02570169  RH  058%=      5-min Rain = 0
KCL2 222014Z 14011KT 26/17 A30 RMK A01 T02570167  RH  057%=      5-min Rain = 0
KCL2 222015Z 15011KT 26/17 A30 RMK A01 T02550167  RH  058%=      5-min Rain = 0
KCL2 222016Z 12009G14KT 26/17 A30 RMK A01 T02550167  RH  058%=      5-min Rain = 0
KCL2 222017Z 14011KT 26/17 A30 RMK A01 T02560171  RH  059%=      5-min Rain = 0
KCL2 222018Z 13011KT 26/17 A30 RMK A01 T02560169  RH  058%=      5-min Rain = 0
KCL2 222019Z 13013KT 26/17 A2999 RMK A01 T02550166  RH  058%=      5-min Rain = 0
KCL2 222020Z 13011KT 25/16 A2999 RMK A01 T02530164  RH  058%=      5-min Rain = 0
KCL2 222021Z 12008KT 25/16 A2999 RMK A01 T02510163  RH  058%=      5-min Rain = 0
KCL2 222022Z 12005KT 25/16 A2999 RMK A01 T02490163  RH  059%=      5-min Rain = 0
KCL2 222023Z 12005KT 25/17 A2999 RMK A01 T02490165  RH  059%=      5-min Rain = 0
KCL2 222024Z 11007KT 25/17 A2999 RMK A01 T02500165  RH  059%=      5-min Rain = 0
KCL2 222025Z 11005KT 25/16 A2999 RMK A01 T02510163  RH  058%=      5-min Rain = 0
KCL2 222026Z 13006KT 25/17 A2999 RMK A01 T02500165  RH  059%=      5-min Rain = 0
KCL2 222027Z 11007KT 25/17 A2999 RMK A01 T02510168  RH  060%=      5-min Rain = 0
KCL2 222028Z 12010KT 25/17 A2999 RMK A01 T02520168  RH  060%=      5-min Rain = 0
KCL2 222029Z 13013KT 25/17 A2999 RMK A01 T02520166  RH  059%=      5-min Rain = 0
KCL2 222030Z 14009KT 25/17 A2999 RMK A01 T02510165  RH  059%=      5-min Rain = 0
KCL2 222031Z 14009KT 25/17 A2999 RMK A01 T02510165  RH  059%=      5-min Rain = 0
KCL2 222032Z 13007KT 25/17 A2999 RMK A01 T02510165  RH  059%=      5-min Rain = 0
KCL2 222033Z 13008KT 25/17 A2999 RMK A01 T02500166  RH  059%=      5-min Rain = 0
KCL2 222034Z 13010KT 25/17 A2999 RMK A01 T02490165  RH  060%=      5-min Rain = 0
KCL2 222035Z 13009KT 25/16 A2999 RMK A01 T02490164  RH  059%=      5-min Rain = 0
KCL2 222036Z 12009KT 25/16 A2999 RMK A01 T02490164  RH  059%=      5-min Rain = 0
KCL2 222037Z 13010KT 25/17 A2999 RMK A01 T02480165  RH  060%=      5-min Rain = 0
KCL2 222038Z 13011KT 25/17 A2999 RMK A01 T02480165  RH  060%=      5-min Rain = 0
KCL2 222039Z 12011KT 25/17 A2999 RMK A01 T02480166  RH  060%=      5-min Rain = 0
KCL2 222040Z 13012KT 25/17 A2999 RMK A01 T02490167  RH  060%=      5-min Rain = 0
KCL2 222041Z 14010KT 25/17 A2999 RMK A01 T02500165  RH  059%=      5-min Rain = 0
KCL2 222042Z 13009KT 25/17 A2999 RMK A01 T02500167  RH  060%=      5-min Rain = 0
KCL2 222043Z 12009KT 25/16 A2999 RMK A01 T02500164  RH  059%=      5-min Rain = 0
KCL2 222044Z 12010KT 25/17 A2999 RMK A01 T02500165  RH  059%=      5-min Rain = 0
KCL2 222045Z 13008KT 25/16 A2999 RMK A01 T02500164  RH  059%=      5-min Rain = 0
KCL2 222046Z 11008KT 25/17 A2999 RMK A01 T02500168  RH  060%=      5-min Rain = 0
KCL2 222047Z 12010KT 25/17 A2999 RMK A01 T02510166  RH  059%=      5-min Rain = 0
KCL2 222048Z 11009KT 25/17 A2999 RMK A01 T02510165  RH  059%=      5-min Rain = 0
KCL2 222049Z 11008KT 25/17 A2999 RMK A01 T02500166  RH  059%=      5-min Rain = 0
KCL2 222050Z 12007KT 25/17 A2999 RMK A01 T02500167  RH  060%=      5-min Rain = 0
KCL2 222051Z 13006KT 25/17 A2999 RMK A01 T02500167  RH  060%=      5-min Rain = 0
KCL2 222052Z 12007KT 25/17 A2999 RMK A01 T02510167  RH  060%=      5-min Rain = 0
KCL2 222053Z 13006KT 25/17 A2999 RMK A01 T02510169  RH  060%=      5-min Rain = 0
KCL2 222054Z 15010KT 25/17 A2999 RMK A01 T02520166  RH  059%=      5-min Rain = 0
KCL2 222055Z 14011KT 25/16 A2999 RMK A01 T02510164  RH  059%=      5-min Rain = 0
KCL2 222056Z 14010G15KT 25/16 A2999 RMK A01 T02490164  RH  059%=      5-min Rain = 0
KCL2 222057Z 13010KT 25/17 A2999 RMK A01 T02480166  RH  060%=      5-min Rain = 0
KCL2 222058Z 14010KT 25/17 A2999 RMK A01 T02480165  RH  060%=      5-min Rain = 0
KCL2 222059Z 14011KT 25/16 A2999 RMK A01 T02480164  RH  060%=      5-min Rain = 0
KCL2 222100Z 13008KT 25/17 A2999 RMK A01 T02470165  RH  060%=      5-min Rain = 0
KCL2 222101Z 13008KT 25/17 A2999 RMK A01 T02470166  RH  061%=      5-min Rain = 0
KCL2 222102Z 12008KT 25/17 A2999 RMK A01 T02470165  RH  060%=      5-min Rain = 0
KCL2 222103Z 13009KT 25/17 A2999 RMK A01 T02470165  RH  060%=      5-min Rain = 0
KCL2 222104Z 12010KT 25/16 A2999 RMK A01 T02460164  RH  060%=      5-min Rain = 0
KCL2 222105Z 13011KT 25/16 A2999 RMK A01 T02460163  RH  060%=      5-min Rain = 0
KCL2 222106Z 14009KT 25/16 A2999 RMK A01 T02450164  RH  061%=      5-min Rain = 0
KCL2 222107Z 15010G15KT 25/16 A2999 RMK A01 T02450164  RH  061%=      5-min Rain = 0
KCL2 222108Z 14011KT 25/16 A2999 RMK A01 T02450163  RH  060%=      5-min Rain = 0
KCL2 222109Z 14011KT 25/16 A2999 RMK A01 T02450163  RH  060%=      5-min Rain = 0
KCL2 222110Z 15012KT 24/16 A2999 RMK A01 T02440161  RH  060%=      5-min Rain = 0
KCL2 222111Z 14013G18KT 24/16 A2999 RMK A01 T02440161  RH  060%=      5-min Rain = 0
KCL2 222112Z 14013KT 24/16 A2999 RMK A01 T02430160  RH  059%=      5-min Rain = 0
KCL2 222113Z 15014KT 24/16 A2999 RMK A01 T02440159  RH  059%=      5-min Rain = 0
KCL2 222114Z 17010KT 24/16 A2999 RMK A01 T02430160  RH  060%=      5-min Rain = 0
KCL2 222115Z 16012G17KT 24/16 A2999 RMK A01 T02440160  RH  059%=      5-min Rain = 0
KCL2 222116Z 15010KT 25/16 A2999 RMK A01 T02450159  RH  059%=      5-min Rain = 0
KCL2 222117Z 15011KT 25/16 A2999 RMK A01 T02450160  RH  059%=      5-min Rain = 0
KCL2 222118Z 16009KT 25/16 A2999 RMK A01 T02460161  RH  059%=      5-min Rain = 0
KCL2 222119Z 16010KT 25/16 A2999 RMK A01 T02470162  RH  059%=      5-min Rain = 0
KCL2 222120Z 16012KT 25/16 A2998 RMK A01 T02470159  RH  058%=      5-min Rain = 0
KCL2 222121Z 16013KT 25/16 A2998 RMK A01 T02470158  RH  058%=      5-min Rain = 0
KCL2 222122Z 16013KT 25/16 A2998 RMK A01 T02460158  RH  058%=      5-min Rain = 0
KCL2 222123Z 16012KT 25/16 A2998 RMK A01 T02460158  RH  058%=      5-min Rain = 0
KCL2 222124Z 17011KT 25/16 A2998 RMK A01 T02460160  RH  059%=      5-min Rain = 0
KCL2 222125Z 16011KT 25/16 A2998 RMK A01 T02460159  RH  058%=      5-min Rain = 0
KCL2 222126Z 16011KT 25/16 A2998 RMK A01 T02460160  RH  059%=      5-min Rain = 0
KCL2 222127Z 16012KT 25/16 A2998 RMK A01 T02460158  RH  058%=      5-min Rain = 0
KCL2 222128Z 16013KT 25/16 A2998 RMK A01 T02460158  RH  058%=      5-min Rain = 0
KCL2 222129Z 15011KT 25/16 A2998 RMK A01 T02450157  RH  058%=      5-min Rain = 0
KCL2 222130Z 16012KT 24/16 A2998 RMK A01 T02440157  RH  058%=      5-min Rain = 0
KCL2 222131Z 15012KT 24/16 A2998 RMK A01 T02440158  RH  059%=      5-min Rain = 0
KCL2 222132Z 15011KT 24/16 A2999 RMK A01 T02440157  RH  058%=      5-min Rain = 0
KCL2 222133Z 16009KT 24/16 A2999 RMK A01 T02440159  RH  059%=      5-min Rain = 0
KCL2 222134Z 16010KT 24/16 A2998 RMK A01 T02440158  RH  059%=      5-min Rain = 0
KCL2 222135Z 16009KT 24/16 A2998 RMK A01 T02440158  RH  059%=      5-min Rain = 0
KCL2 222136Z 16012KT 25/16 A2998 RMK A01 T02450157  RH  058%=      5-min Rain = 0
KCL2 222137Z 14009KT 25/16 A2998 RMK A01 T02450159  RH  059%=      5-min Rain = 0
KCL2 222138Z 15009KT 25/16 A2998 RMK A01 T02450158  RH  058%=      5-min Rain = 0
KCL2 222139Z 16009KT 25/16 A2998 RMK A01 T02450160  RH  059%=      5-min Rain = 0
KCL2 222140Z 17010KT 25/16 A2998 RMK A01 T02470160  RH  058%=      5-min Rain = 0
KCL2 222141Z 16010KT 25/16 A2998 RMK A01 T02480157  RH  057%=      5-min Rain = 0
KCL2 222142Z 16008KT 25/16 A2998 RMK A01 T02470158  RH  058%=      5-min Rain = 0
KCL2 222143Z 15008KT 25/16 A2998 RMK A01 T02480158  RH  057%=      5-min Rain = 0
KCL2 222144Z 15009KT 25/16 A2998 RMK A01 T02480157  RH  057%=      5-min Rain = 0
KCL2 222145Z 15008KT 25/16 A2998 RMK A01 T02480158  RH  058%=      5-min Rain = 0
KCL2 222146Z 15008KT 25/16 A2998 RMK A01 T02490160  RH  058%=      5-min Rain = 0
KCL2 222147Z 14008KT 25/16 A2998 RMK A01 T02500159  RH  057%=      5-min Rain = 0
KCL2 222148Z 14010KT 25/16 A2998 RMK A01 T02500157  RH  056%=      5-min Rain = 0
KCL2 222149Z 15010KT 25/16 A2998 RMK A01 T02490157  RH  057%=      5-min Rain = 0
KCL2 222150Z 15009KT 25/16 A2998 RMK A01 T02490155  RH  056%=      5-min Rain = 0
KCL2 222151Z 16009KT 25/16 A2998 RMK A01 T02490157  RH  057%=      5-min Rain = 0
KCL2 222152Z 14010KT 25/16 A2998 RMK A01 T02500159  RH  057%=      5-min Rain = 0
KCL2 222153Z 14010KT 25/16 A2998 RMK A01 T02500155  RH  055%=      5-min Rain = 0
KCL2 222154Z 14010KT 25/16 A2998 RMK A01 T02480155  RH  056%=      5-min Rain = 0
KCL2 222155Z 15008KT 25/16 A2998 RMK A01 T02470157  RH  057%=      5-min Rain = 0
KCL2 222156Z 16009KT 25/16 A2998 RMK A01 T02470157  RH  057%=      5-min Rain = 0
KCL2 222157Z 16009KT 25/16 A2998 RMK A01 T02470155  RH  056%=      5-min Rain = 0
KCL2 222158Z 15008KT 25/16 A2998 RMK A01 T02470156  RH  057%=      5-min Rain = 0
KCL2 222159Z 15010KT 25/16 A2998 RMK A01 T02460156  RH  057%=      5-min Rain = 0
KCL2 222200Z 14006KT 25/16 A2998 RMK A01 T02450158  RH  058%=      5-min Rain = 0
KCL2 222201Z 15008KT 25/16 A2998 RMK A01 T02450158  RH  058%=      5-min Rain = 0
KCL2 222202Z 14010G15KT 25/16 A2998 RMK A01 T02450160  RH  059%=      5-min Rain = 0
KCL2 222203Z 14010KT 24/16 A2998 RMK A01 T02440158  RH  059%=      5-min Rain = 0
KCL2 222204Z 14011KT 24/16 A2998 RMK A01 T02430158  RH  059%=      5-min Rain = 0
KCL2 222205Z 14011KT 24/16 A2998 RMK A01 T02410157  RH  059%=      5-min Rain = 0
KCL2 222206Z 13009KT 24/16 A2998 RMK A01 T02410155  RH  059%=      5-min Rain = 0
KCL2 222207Z 13010KT 24/16 A2998 RMK A01 T02400157  RH  060%=      5-min Rain = 0
KCL2 222208Z 13012KT 24/16 A2998 RMK A01 T02390156  RH  060%=      5-min Rain = 0
KCL2 222209Z 13010KT 24/16 A2998 RMK A01 T02380156  RH  060%=      5-min Rain = 0
KCL2 222210Z 13008KT 24/16 A2998 RMK A01 T02380157  RH  060%=      5-min Rain = 0
KCL2 222211Z 15008KT 24/16 A2998 RMK A01 T02380158  RH  061%=      5-min Rain = 0
KCL2 222212Z 14009KT 24/16 A2998 RMK A01 T02380156  RH  060%=      5-min Rain = 0
KCL2 222213Z 15010KT 24/15 A2998 RMK A01 T02380154  RH  059%=      5-min Rain = 0
KCL2 222214Z 15009KT 24/15 A2998 RMK A01 T02370153  RH  059%=      5-min Rain = 0
KCL2 222215Z 15008KT 24/16 A2998 RMK A01 T02370156  RH  060%=      5-min Rain = 0
KCL2 222216Z 15007KT 24/16 A2998 RMK A01 T02370156  RH  061%=      5-min Rain = 0
KCL2 222217Z 16011KT 24/16 A2998 RMK A01 T02370156  RH  060%=      5-min Rain = 0
KCL2 222218Z 15010KT 24/15 A2998 RMK A01 T02370154  RH  060%=      5-min Rain = 0
KCL2 222219Z 15009KT 24/15 A2998 RMK A01 T02360154  RH  060%=      5-min Rain = 0
KCL2 222220Z 16008KT 24/15 A2998 RMK A01 T02360154  RH  060%=      5-min Rain = 0
KCL2 222221Z 16011KT 24/15 A2998 RMK A01 T02360153  RH  060%=      5-min Rain = 0
KCL2 222222Z 16008KT 24/15 A2999 RMK A01 T02350152  RH  060%=      5-min Rain = 0
KCL2 222223Z 16009KT 24/15 A2999 RMK A01 T02350153  RH  060%=      5-min Rain = 0
KCL2 222224Z 15008KT 24/15 A2999 RMK A01 T02350153  RH  060%=      5-min Rain = 0
KCL2 222225Z 16010KT 23/15 A2999 RMK A01 T02340152  RH  060%=      5-min Rain = 0
KCL2 222226Z 16007KT 23/15 A2999 RMK A01 T02340152  RH  060%=      5-min Rain = 0
KCL2 222227Z 15007KT 23/15 A2999 RMK A01 T02340153  RH  060%=      5-min Rain = 0
KCL2 222228Z 14006KT 23/15 A2999 RMK A01 T02340153  RH  060%=      5-min Rain = 0
KCL2 222229Z 15007KT 23/15 A2999 RMK A01 T02340152  RH  060%=      5-min Rain = 0
KCL2 222230Z 15007KT 23/15 A2999 RMK A01 T02340152  RH  060%=      5-min Rain = 0
KCL2 222231Z 14006KT 23/15 A2999 RMK A01 T02340152  RH  060%=      5-min Rain = 0
KCL2 222232Z 14007KT 23/15 A2999 RMK A01 T02340151  RH  059%=      5-min Rain = 0
KCL2 222233Z 15006KT 23/15 A2999 RMK A01 T02340152  RH  060%=      5-min Rain = 0
KCL2 222234Z 13008KT 23/15 A2999 RMK A01 T02340154  RH  061%=      5-min Rain = 0
KCL2 222235Z 13008KT 23/15 A2999 RMK A01 T02340152  RH  060%=      5-min Rain = 0
KCL2 222236Z 14007KT 23/15 A2999 RMK A01 T02330152  RH  060%=      5-min Rain = 0
KCL2 222237Z 14007KT 23/15 A2999 RMK A01 T02330153  RH  061%=      5-min Rain = 0
KCL2 222238Z 14007KT 23/15 A2999 RMK A01 T02330152  RH  060%=      5-min Rain = 0
KCL2 222239Z 14006KT 23/15 A2999 RMK A01 T02330152  RH  060%=      5-min Rain = 0
KCL2 222240Z 13009KT 23/15 A2999 RMK A01 T02330153  RH  061%=      5-min Rain = 0
KCL2 222241Z 14008KT 23/15 A2999 RMK A01 T02340151  RH  060%=      5-min Rain = 0
KCL2 222242Z 14008KT 23/15 A2999 RMK A01 T02330152  RH  060%=      5-min Rain = 0
KCL2 222243Z 14010KT 23/15 A2999 RMK A01 T02340150  RH  059%=      5-min Rain = 0
KCL2 222244Z 14007KT 23/15 A2999 RMK A01 T02340151  RH  060%=      5-min Rain = 0
KCL2 222245Z 14006KT 24/15 A2999 RMK A01 T02350153  RH  060%=      5-min Rain = 0
KCL2 222246Z 14009KT 24/15 A2999 RMK A01 T02360152  RH  059%=      5-min Rain = 0
KCL2 222247Z 15008KT 24/15 A2999 RMK A01 T02360150  RH  059%=      5-min Rain = 0
KCL2 222248Z 15008KT 24/15 A2999 RMK A01 T02360150  RH  058%=      5-min Rain = 0
KCL2 222249Z 14008KT 24/15 A2999 RMK A01 T02370152  RH  059%=      5-min Rain = 0
KCL2 222250Z 14012KT 24/15 A2999 RMK A01 T02370149  RH  058%=      5-min Rain = 0
KCL2 222251Z 15010KT 24/15 A2999 RMK A01 T02360147  RH  057%=      5-min Rain = 0
KCL2 222252Z 14008KT 24/15 A2999 RMK A01 T02350147  RH  058%=      5-min Rain = 0
KCL2 222253Z 14007KT 24/15 A2999 RMK A01 T02350150  RH  059%=      5-min Rain = 0
KCL2 222254Z 14009KT 24/15 A2998 RMK A01 T02350148  RH  058%=      5-min Rain = 0
KCL2 222255Z 13009KT 24/15 A2999 RMK A01 T02350148  RH  058%=      5-min Rain = 0
KCL2 222256Z 14011KT 24/15 A2999 RMK A01 T02350147  RH  058%=      5-min Rain = 0
KCL2 222257Z 14009KT 24/15 A2998 RMK A01 T02350145  RH  057%=      5-min Rain = 0
KCL2 222258Z 14009KT 24/15 A2998 RMK A01 T02350146  RH  057%=      5-min Rain = 0
KCL2 222259Z 14009KT 24/15 A2998 RMK A01 T02350145  RH  057%=      5-min Rain = 0
KCL2 222300Z 14010KT 24/15 A2998 RMK A01 T02350146  RH  057%=      5-min Rain = 0
KCL2 222301Z 14008KT 24/15 A2998 RMK A01 T02360146  RH  057%=      5-min Rain = 0
KCL2 222302Z 13008KT 24/15 A2998 RMK A01 T02370148  RH  058%=      5-min Rain = 0
KCL2 222303Z 14008KT 24/15 A2998 RMK A01 T02380148  RH  057%=      5-min Rain = 0
KCL2 222304Z 14007KT 24/15 A2998 RMK A01 T02380149  RH  057%=      5-min Rain = 0
KCL2 222305Z 14010KT 24/15 A2998 RMK A01 T02390147  RH  057%=      5-min Rain = 0
KCL2 222306Z 14008KT 24/15 A2998 RMK A01 T02380146  RH  056%=      5-min Rain = 0
KCL2 222307Z 13007KT 24/15 A2998 RMK A01 T02380149  RH  058%=      5-min Rain = 0
KCL2 222308Z 13007KT 24/15 A2998 RMK A01 T02380149  RH  057%=      5-min Rain = 0
KCL2 222309Z 13010KT 24/15 A2998 RMK A01 T02380147  RH  057%=      5-min Rain = 0
KCL2 222310Z 14009KT 24/15 A2998 RMK A01 T02370147  RH  057%=      5-min Rain = 0
KCL2 222311Z 15009KT 24/15 A2998 RMK A01 T02360147  RH  057%=      5-min Rain = 0
KCL2 222312Z 15008KT 24/15 A2998 RMK A01 T02360146  RH  057%=      5-min Rain = 0
KCL2 222313Z 15007KT 24/15 A2998 RMK A01 T02360148  RH  058%=      5-min Rain = 0
KCL2 222314Z 14007KT 24/15 A2998 RMK A01 T02350149  RH  058%=      5-min Rain = 0
KCL2 222315Z 14007KT 24/15 A2998 RMK A01 T02350149  RH  058%=      5-min Rain = 0
KCL2 222316Z 14006KT 24/15 A2998 RMK A01 T02350149  RH  059%=      5-min Rain = 0
KCL2 222317Z 15008KT 23/15 A2998 RMK A01 T02340148  RH  059%=      5-min Rain = 0
KCL2 222318Z 13009KT 23/15 A2998 RMK A01 T02340148  RH  059%=      5-min Rain = 0
KCL2 222319Z 13010KT 23/15 A2998 RMK A01 T02340149  RH  059%=      5-min Rain = 0
KCL2 222320Z 13010KT 23/15 A2998 RMK A01 T02340146  RH  058%=      5-min Rain = 0
KCL2 222321Z 13010KT 23/15 A2998 RMK A01 T02330146  RH  058%=      5-min Rain = 0
KCL2 222322Z 13009KT 23/15 A2998 RMK A01 T02330145  RH  058%=      5-min Rain = 0
KCL2 222323Z 13011KT 23/15 A2998 RMK A01 T02320146  RH  058%=      5-min Rain = 0
KCL2 222324Z 13008KT 23/15 A2998 RMK A01 T02320146  RH  058%=      5-min Rain = 0
KCL2 222325Z 14007KT 23/15 A2998 RMK A01 T02320148  RH  059%=      5-min Rain = 0
KCL2 222326Z 13009KT 23/15 A2998 RMK A01 T02320148  RH  059%=      5-min Rain = 0
KCL2 222327Z 14009KT 23/15 A2998 RMK A01 T02310146  RH  059%=      5-min Rain = 0
KCL2 222328Z 15008KT 23/15 A2998 RMK A01 T02310147  RH  059%=      5-min Rain = 0
KCL2 222329Z 14010KT 23/15 A2998 RMK A01 T02310146  RH  059%=      5-min Rain = 0
KCL2 222330Z 14011KT 23/15 A2998 RMK A01 T02310145  RH  058%=      5-min Rain = 0
KCL2 222331Z 14007KT 23/15 A2998 RMK A01 T02300146  RH  059%=      5-min Rain = 0
KCL2 222332Z 14009KT 23/15 A2998 RMK A01 T02300147  RH  059%=      5-min Rain = 0
KCL2 222333Z 14010KT 23/15 A2998 RMK A01 T02300146  RH  059%=      5-min Rain = 0
KCL2 222334Z 14009KT 23/15 A2998 RMK A01 T02300146  RH  059%=      5-min Rain = 0
KCL2 222335Z 14008KT 23/15 A2998 RMK A01 T02290146  RH  059%=      5-min Rain = 0
KCL2 222336Z 14007KT 23/15 A2998 RMK A01 T02290146  RH  060%=      5-min Rain = 0
KCL2 222337Z 14008KT 23/15 A2998 RMK A01 T02290147  RH  060%=      5-min Rain = 0
KCL2 222338Z 13009KT 23/15 A2998 RMK A01 T02290146  RH  060%=      5-min Rain = 0
KCL2 222339Z 14008KT 23/15 A2998 RMK A01 T02290147  RH  060%=      5-min Rain = 0
KCL2 222340Z 14009KT 23/15 A2998 RMK A01 T02280147  RH  060%=      5-min Rain = 0
KCL2 222341Z 14007KT 23/15 A2998 RMK A01 T02280147  RH  060%=      5-min Rain = 0
KCL2 222342Z 14007KT 23/15 A2998 RMK A01 T02280148  RH  060%=      5-min Rain = 0
KCL2 222343Z 13007KT 23/15 A2999 RMK A01 T02280149  RH  061%=      5-min Rain = 0
KCL2 222344Z 12008KT 23/15 A2999 RMK A01 T02280149  RH  061%=      5-min Rain = 0
KCL2 222345Z 13007KT 23/15 A2999 RMK A01 T02280150  RH  061%=      5-min Rain = 0
KCL2 222346Z 13007KT 23/15 A2999 RMK A01 T02280150  RH  062%=      5-min Rain = 0
KCL2 222347Z 14008KT 23/15 A2999 RMK A01 T02270150  RH  061%=      5-min Rain = 0
KCL2 222348Z 13007KT 23/15 A2999 RMK A01 T02280150  RH  061%=      5-min Rain = 0
KCL2 222349Z 14008KT 23/15 A2999 RMK A01 T02270150  RH  062%=      5-min Rain = 0
KCL2 222350Z 14006KT 23/15 A2999 RMK A01 T02270151  RH  062%=      5-min Rain = 0
KCL2 222351Z 14007KT 23/15 A2999 RMK A01 T02270151  RH  062%=      5-min Rain = 0
KCL2 222352Z 14005KT 23/15 A2999 RMK A01 T02270151  RH  062%=      5-min Rain = 0
KCL2 222353Z 14007KT 23/15 A2999 RMK A01 T02270152  RH  063%=      5-min Rain = 0
KCL2 222354Z 13007KT 23/15 A2999 RMK A01 T02270152  RH  063%=      5-min Rain = 0
KCL2 222355Z 14006KT 23/15 A30 RMK A01 T02270152  RH  063%=      5-min Rain = 0
KCL2 222356Z 14007KT 23/15 A30 RMK A01 T02260152  RH  063%=      5-min Rain = 0
KCL2 222357Z 14007KT 23/15 A30 RMK A01 T02260152  RH  063%=      5-min Rain = 0
KCL2 222358Z 14009KT 23/15 A30 RMK A01 T02260152  RH  063%=      5-min Rain = 0
KCL2 222359Z 16009KT 23/15 A30 RMK A01 T02260151  RH  062%=      5-min Rain = 0
KCL2 230000Z 15008KT 23/15 A30 RMK A01 T02260151  RH  062%=      5-min Rain = 0
KCL2 230001Z 15007KT 23/15 A30 RMK A01 T02260151  RH  062%=      5-min Rain = 0
KCL2 230002Z 14006KT 23/15 A30 RMK A01 T02260151  RH  063%=      5-min Rain = 0
KCL2 230003Z 16008KT 23/15 A30 RMK A01 T02260151  RH  063%=      5-min Rain = 0
KCL2 230004Z 15007KT 23/15 A30 RMK A01 T02260151  RH  063%=      5-min Rain = 0
KCL2 230005Z 14007KT 23/15 A30 RMK A01 T02260151  RH  063%=      5-min Rain = 0
KCL2 230006Z 14008KT 23/15 A30 RMK A01 T02260152  RH  063%=      5-min Rain = 0
KCL2 230007Z 14005KT 23/15 A30 RMK A01 T02250152  RH  063%=      5-min Rain = 0
KCL2 230008Z 14007KT 23/15 A30 RMK A01 T02250151  RH  063%=      5-min Rain = 0
KCL2 230009Z 13007KT 23/15 A30 RMK A01 T02250151  RH  063%=      5-min Rain = 0
KCL2 230010Z 14007KT 23/15 A30 RMK A01 T02250152  RH  063%=      5-min Rain = 0
KCL2 230011Z 14007KT 22/15 A30 RMK A01 T02240151  RH  063%=      5-min Rain = 0
KCL2 230012Z 14007KT 23/15 A30 RMK A01 T02250151  RH  063%=      5-min Rain = 0
KCL2 230013Z 14006KT 23/15 A30 RMK A01 T02250151  RH  063%=      5-min Rain = 0
KCL2 230014Z 14006KT 23/15 A30 RMK A01 T02250151  RH  063%=      5-min Rain = 0
KCL2 230015Z 14008KT 23/15 A30 RMK A01 T02250151  RH  063%=      5-min Rain = 0
KCL2 230016Z 14008KT 22/15 A2999 RMK A01 T02240151  RH  063%=      5-min Rain = 0
KCL2 230017Z 13005KT 22/15 A2999 RMK A01 T02240151  RH  063%=      5-min Rain = 0
KCL2 230018Z 13006KT 22/15 A2999 RMK A01 T02240153  RH  064%=      5-min Rain = 0
KCL2 230019Z 12006KT 22/15 A2999 RMK A01 T02240152  RH  064%=      5-min Rain = 0
KCL2 230020Z 12006KT 22/15 A2999 RMK A01 T02230153  RH  064%=      5-min Rain = 0
KCL2 230021Z 11007KT 22/15 A2999 RMK A01 T02230152  RH  064%=      5-min Rain = 0
KCL2 230022Z 12008KT 22/15 A2999 RMK A01 T02230152  RH  064%=      5-min Rain = 0
KCL2 230023Z 12008KT 22/15 A2999 RMK A01 T02220151  RH  064%=      5-min Rain = 0
KCL2 230024Z 12008KT 22/15 A2998 RMK A01 T02220151  RH  064%=      5-min Rain = 0
KCL2 230025Z 12007KT 22/15 A2998 RMK A01 T02220151  RH  064%=      5-min Rain = 0
KCL2 230026Z 12009KT 22/15 A2998 RMK A01 T02220151  RH  064%=      5-min Rain = 0
KCL2 230027Z 12009KT 22/15 A2998 RMK A01 T02210149  RH  064%=      5-min Rain = 0
KCL2 230028Z 12008KT 22/15 A2998 RMK A01 T02210150  RH  064%=      5-min Rain = 0
KCL2 230029Z 13009KT 22/15 A2998 RMK A01 T02210150  RH  064%=      5-min Rain = 0
KCL2 230030Z 13007KT 22/15 A2998 RMK A01 T02210150  RH  064%=      5-min Rain = 0
KCL2 230031Z 12008KT 22/15 A2998 RMK A01 T02210150  RH  064%=      5-min Rain = 0
KCL2 230032Z 13007KT 22/15 A2998 RMK A01 T02210149  RH  064%=      5-min Rain = 0
KCL2 230033Z 12006KT 22/15 A2998 RMK A01 T02200150  RH  064%=      5-min Rain = 0
KCL2 230034Z 12007KT 22/15 A2998 RMK A01 T02200149  RH  064%=      5-min Rain = 0
KCL2 230035Z 12006KT 22/15 A2998 RMK A01 T02200149  RH  064%=      5-min Rain = 0
KCL2 230036Z 12007KT 22/15 A2998 RMK A01 T02200150  RH  064%=      5-min Rain = 0
KCL2 230037Z 12007KT 22/15 A2998 RMK A01 T02200149  RH  064%=      5-min Rain = 0
KCL2 230038Z 12007KT 22/15 A2998 RMK A01 T02190149  RH  064%=      5-min Rain = 0
KCL2 230039Z 12007KT 22/15 A2998 RMK A01 T02190149  RH  064%=      5-min Rain = 0
KCL2 230040Z 13008KT 22/15 A2998 RMK A01 T02180149  RH  065%=      5-min Rain = 0
KCL2 230041Z 13007KT 22/15 A2998 RMK A01 T02180148  RH  064%=      5-min Rain = 0
KCL2 230042Z 12007KT 22/15 A2998 RMK A01 T02180148  RH  064%=      5-min Rain = 0
KCL2 230043Z 13006KT 22/15 A2998 RMK A01 T02180148  RH  064%=      5-min Rain = 0
KCL2 230044Z 13007KT 22/15 A2998 RMK A01 T02180148  RH  065%=      5-min Rain = 0
KCL2 230045Z 13007KT 22/15 A2998 RMK A01 T02180148  RH  065%=      5-min Rain = 0
KCL2 230046Z 13007KT 22/15 A2998 RMK A01 T02180149  RH  065%=      5-min Rain = 0
KCL2 230047Z 13007KT 22/15 A2998 RMK A01 T02180148  RH  064%=      5-min Rain = 0
KCL2 230048Z 12007KT 22/15 A2998 RMK A01 T02180148  RH  064%=      5-min Rain = 0
KCL2 230049Z 13008KT 22/15 A2998 RMK A01 T02180148  RH  065%=      5-min Rain = 0
KCL2 230050Z 12007KT 22/15 A2998 RMK A01 T02170148  RH  064%=      5-min Rain = 0
KCL2 230051Z 12007KT 22/15 A2998 RMK A01 T02170148  RH  065%=      5-min Rain = 0
KCL2 230052Z 12008KT 22/15 A2998 RMK A01 T02170148  RH  065%=      5-min Rain = 0
KCL2 230053Z 12008KT 22/15 A2998 RMK A01 T02170147  RH  065%=      5-min Rain = 0
KCL2 230054Z 13008KT 22/15 A2998 RMK A01 T02170148  RH  065%=      5-min Rain = 0
KCL2 230055Z 13008KT 22/15 A2998 RMK A01 T02160148  RH  065%=      5-min Rain = 0
KCL2 230056Z 13008KT 22/15 A2998 RMK A01 T02160147  RH  065%=      5-min Rain = 0
KCL2 230057Z 13008KT 22/15 A2998 RMK A01 T02160147  RH  065%=      5-min Rain = 0
KCL2 230058Z 13008KT 22/15 A2998 RMK A01 T02160147  RH  065%=      5-min Rain = 0
KCL2 230059Z 13009KT 22/15 A2998 RMK A01 T02160146  RH  064%=      5-min Rain = 0
KCL2 230100Z 14008KT 22/15 A2998 RMK A01 T02160146  RH  064%=      5-min Rain = 0
KCL2 230101Z 13007KT 22/15 A2998 RMK A01 T02160146  RH  064%=      5-min Rain = 0
KCL2 230102Z 13008KT 22/15 A2998 RMK A01 T02160147  RH  065%=      5-min Rain = 0
KCL2 230103Z 13008KT 22/15 A2998 RMK A01 T02160147  RH  065%=      5-min Rain = 0
KCL2 230104Z 13009KT 22/15 A2998 RMK A01 T02150146  RH  065%=      5-min Rain = 0
KCL2 230105Z 13008KT 22/15 A2998 RMK A01 T02150146  RH  065%=      5-min Rain = 0
KCL2 230106Z 13007KT 22/15 A2998 RMK A01 T02150146  RH  065%=      5-min Rain = 0
KCL2 230107Z 13008KT 22/15 A2997 RMK A01 T02150147  RH  065%=      5-min Rain = 0
KCL2 230108Z 12008KT 21/15 A2998 RMK A01 T02140146  RH  065%=      5-min Rain = 0
KCL2 230109Z 13008KT 21/15 A2997 RMK A01 T02140146  RH  065%=      5-min Rain = 0
KCL2 230110Z 12009KT 21/15 A2997 RMK A01 T02140146  RH  065%=      5-min Rain = 0
KCL2 230111Z 13010KT 21/15 A2997 RMK A01 T02130146  RH  065%=      5-min Rain = 0
KCL2 230112Z 13008KT 21/15 A2997 RMK A01 T02130146  RH  065%=      5-min Rain = 0
KCL2 230113Z 13009KT 21/15 A2998 RMK A01 T02130146  RH  066%=      5-min Rain = 0
KCL2 230114Z 13008KT 21/15 A2998 RMK A01 T02130146  RH  066%=      5-min Rain = 0
KCL2 230115Z 14009KT 21/15 A2998 RMK A01 T02130146  RH  066%=      5-min Rain = 0
KCL2 230116Z 13008KT 21/15 A2998 RMK A01 T02120146  RH  066%=      5-min Rain = 0
KCL2 230117Z 14008KT 21/15 A2998 RMK A01 T02120146  RH  066%=      5-min Rain = 0
KCL2 230118Z 14008KT 21/15 A2998 RMK A01 T02120146  RH  066%=      5-min Rain = 0
KCL2 230119Z 14008KT 21/15 A2998 RMK A01 T02120146  RH  066%=      5-min Rain = 0
KCL2 230120Z 13009KT 21/15 A2998 RMK A01 T02120146  RH  066%=      5-min Rain = 0
KCL2 230121Z 14008KT 21/15 A2998 RMK A01 T02120146  RH  066%=      5-min Rain = 0
KCL2 230122Z 13007KT 21/15 A2998 RMK A01 T02120146  RH  066%=      5-min Rain = 0
KCL2 230123Z 14007KT 21/15 A2998 RMK A01 T02120146  RH  066%=      5-min Rain = 0
KCL2 230124Z 14007KT 21/15 A2998 RMK A01 T02110146  RH  066%=      5-min Rain = 0
KCL2 230125Z 13008KT 21/15 A2998 RMK A01 T02110146  RH  067%=      5-min Rain = 0
KCL2 230126Z 14007KT 21/15 A2998 RMK A01 T02100146  RH  067%=      5-min Rain = 0
KCL2 230127Z 14007KT 21/15 A2998 RMK A01 T02100146  RH  067%=      5-min Rain = 0
KCL2 230128Z 13007KT 21/15 A2998 RMK A01 T02100146  RH  067%=      5-min Rain = 0
KCL2 230129Z 13006KT 21/15 A2998 RMK A01 T02100146  RH  067%=      5-min Rain = 0
KCL2 230130Z 13007KT 21/15 A2998 RMK A01 T02100146  RH  067%=      5-min Rain = 0
KCL2 230131Z 13005KT 21/15 A2998 RMK A01 T02100146  RH  067%=      5-min Rain = 0
KCL2 230132Z 13006KT 21/15 A2998 RMK A01 T02100146  RH  067%=      5-min Rain = 0
KCL2 230133Z 13007KT 21/15 A2998 RMK A01 T02090146  RH  067%=      5-min Rain = 0
KCL2 230134Z 12006KT 21/15 A2998 RMK A01 T02090147  RH  067%=      5-min Rain = 0
KCL2 230135Z 13008KT 21/15 A2998 RMK A01 T02090146  RH  067%=      5-min Rain = 0
KCL2 230136Z 13006KT 21/15 A2998 RMK A01 T02080146  RH  067%=      5-min Rain = 0
KCL2 230137Z 13007KT 21/15 A2998 RMK A01 T02080147  RH  068%=      5-min Rain = 0
KCL2 230138Z 13007KT 21/15 A2998 RMK A01 T02080146  RH  068%=      5-min Rain = 0
KCL2 230139Z 12007KT 21/15 A2998 RMK A01 T02080146  RH  068%=      5-min Rain = 0
KCL2 230140Z 13006KT 21/15 A2998 RMK A01 T02080147  RH  068%=      5-min Rain = 0
KCL2 230141Z 13006KT 21/15 A2998 RMK A01 T02080147  RH  068%=      5-min Rain = 0
KCL2 230142Z 13007KT 21/15 A2998 RMK A01 T02070147  RH  068%=      5-min Rain = 0
KCL2 230143Z 12006KT 21/15 A2998 RMK A01 T02070147  RH  068%=      5-min Rain = 0
KCL2 230144Z 12007KT 21/15 A2998 RMK A01 T02070147  RH  068%=      5-min Rain = 0
KCL2 230145Z 12006KT 21/15 A2998 RMK A01 T02070146  RH  068%=      5-min Rain = 0
KCL2 230146Z 12007KT 21/15 A2998 RMK A01 T02070147  RH  068%=      5-min Rain = 0
KCL2 230147Z 12007KT 21/15 A2998 RMK A01 T02070146  RH  068%=      5-min Rain = 0
KCL2 230148Z 12007KT 21/15 A2998 RMK A01 T02080147  RH  068%=      5-min Rain = 0
KCL2 230149Z 12007KT 21/15 A2999 RMK A01 T02070147  RH  068%=      5-min Rain = 0
KCL2 230150Z 12007KT 21/15 A2998 RMK A01 T02070147  RH  068%=      5-min Rain = 0
KCL2 230151Z 12007KT 21/15 A2998 RMK A01 T02070147  RH  068%=      5-min Rain = 0
KCL2 230152Z 12006KT 21/15 A2998 RMK A01 T02070147  RH  069%=      5-min Rain = 0
KCL2 230153Z 12007KT 21/15 A2998 RMK A01 T02070148  RH  069%=      5-min Rain = 0
KCL2 230154Z 13007KT 21/15 A2999 RMK A01 T02060148  RH  069%=      5-min Rain = 0
KCL2 230155Z 13007KT 21/15 A2999 RMK A01 T02060147  RH  069%=      5-min Rain = 0
KCL2 230156Z 13007KT 21/15 A2999 RMK A01 T02060147  RH  069%=      5-min Rain = 0
KCL2 230157Z 13006KT 21/15 A2999 RMK A01 T02060148  RH  069%=      5-min Rain = 0
KCL2 230158Z 13006KT 21/15 A2999 RMK A01 T02060148  RH  069%=      5-min Rain = 0
KCL2 230159Z 13007KT 21/15 A2999 RMK A01 T02050148  RH  070%=      5-min Rain = 0
KCL2 230200Z 12006KT 21/15 A2999 RMK A01 T02050147  RH  069%=      5-min Rain = 0
KCL2 230201Z 12007KT 21/15 A2999 RMK A01 T02050147  RH  070%=      5-min Rain = 0
KCL2 230202Z 12007KT 21/15 A2999 RMK A01 T02050148  RH  070%=      5-min Rain = 0
KCL2 230203Z 12007KT 21/15 A2999 RMK A01 T02050148  RH  070%=      5-min Rain = 0
KCL2 230204Z 12007KT 21/15 A2999 RMK A01 T02050148  RH  070%=      5-min Rain = 0
KCL2 230205Z 12007KT 21/15 A2999 RMK A01 T02050148  RH  070%=      5-min Rain = 0
KCL2 230206Z 13007KT 20/15 A2999 RMK A01 T02040148  RH  070%=      5-min Rain = 0
KCL2 230207Z 12007KT 20/15 A2999 RMK A01 T02040148  RH  070%=      5-min Rain = 0
KCL2 230208Z 12006KT 20/15 A2999 RMK A01 T02040147  RH  070%=      5-min Rain = 0
KCL2 230209Z 13008KT 20/15 A2999 RMK A01 T02040148  RH  070%=      5-min Rain = 0
KCL2 230210Z 12008KT 20/15 A2999 RMK A01 T02040147  RH  070%=      5-min Rain = 0
KCL2 230211Z 12007KT 20/15 A2999 RMK A01 T02030148  RH  070%=      5-min Rain = 0
KCL2 230212Z 12007KT 20/15 A2999 RMK A01 T02040148  RH  070%=      5-min Rain = 0
KCL2 230213Z 12007KT 20/15 A2999 RMK A01 T02030148  RH  071%=      5-min Rain = 0
KCL2 230214Z 13007KT 20/15 A2999 RMK A01 T02020148  RH  071%=      5-min Rain = 0
KCL2 230215Z 12008KT 20/15 A2998 RMK A01 T02020147  RH  071%=      5-min Rain = 0
KCL2 230216Z 12007KT 20/15 A2998 RMK A01 T02030148  RH  071%=      5-min Rain = 0
KCL2 230217Z 13007KT 20/15 A2998 RMK A01 T02020148  RH  071%=      5-min Rain = 0
KCL2 230218Z 12009KT 20/15 A2998 RMK A01 T02010147  RH  071%=      5-min Rain = 0
KCL2 230219Z 12008KT 20/15 A2998 RMK A01 T02010147  RH  071%=      5-min Rain = 0
KCL2 230220Z 12009KT 20/15 A2998 RMK A01 T02020148  RH  071%=      5-min Rain = 0
KCL2 230221Z 12008KT 20/15 A2998 RMK A01 T02020148  RH  071%=      5-min Rain = 0
KCL2 230222Z 13009KT 20/15 A2998 RMK A01 T02020147  RH  071%=      5-min Rain = 0
KCL2 230223Z 12008KT 20/15 A2998 RMK A01 T02020147  RH  071%=      5-min Rain = 0
KCL2 230224Z 12008KT 20/15 A2998 RMK A01 T02020147  RH  071%=      5-min Rain = 0
KCL2 230225Z 12009KT 20/15 A2998 RMK A01 T02020147  RH  071%=      5-min Rain = 0
KCL2 230226Z 13009KT 20/15 A2999 RMK A01 T02030147  RH  070%=      5-min Rain = 0
KCL2 230227Z 12008KT 20/15 A2999 RMK A01 T02020147  RH  070%=      5-min Rain = 0
KCL2 230228Z 13008KT 20/15 A2999 RMK A01 T02030147  RH  070%=      5-min Rain = 0
KCL2 230229Z 13007KT 20/15 A2999 RMK A01 T02030147  RH  070%=      5-min Rain = 0
KCL2 230230Z 12007KT 20/15 A2999 RMK A01 T02030147  RH  070%=      5-min Rain = 0
KCL2 230231Z 13007KT 20/15 A2999 RMK A01 T02030147  RH  070%=      5-min Rain = 0
KCL2 230232Z 13009KT 20/15 A2999 RMK A01 T02030147  RH  070%=      5-min Rain = 0
KCL2 230233Z 13006KT 20/15 A2999 RMK A01 T02030148  RH  070%=      5-min Rain = 0
KCL2 230234Z 13008KT 20/15 A2999 RMK A01 T02030147  RH  070%=      5-min Rain = 0
KCL2 230235Z 13007KT 20/15 A2999 RMK A01 T02030147  RH  070%=      5-min Rain = 0
KCL2 230236Z 13006KT 20/15 A2999 RMK A01 T02030148  RH  070%=      5-min Rain = 0
KCL2 230237Z 13007KT 20/15 A2999 RMK A01 T02030148  RH  071%=      5-min Rain = 0
KCL2 230238Z 13008KT 20/15 A2999 RMK A01 T02030147  RH  070%=      5-min Rain = 0
KCL2 230239Z 13007KT 20/15 A2999 RMK A01 T02030147  RH  070%=      5-min Rain = 0
KCL2 230240Z 13007KT 20/15 A2999 RMK A01 T02030147  RH  070%=      5-min Rain = 0
KCL2 230241Z 13007KT 20/15 A2999 RMK A01 T02030147  RH  070%=      5-min Rain = 0
KCL2 230242Z 13006KT 20/15 A30 RMK A01 T02030148  RH  070%=      5-min Rain = 0
KCL2 230243Z 12007KT 20/15 A30 RMK A01 T02030148  RH  070%=      5-min Rain = 0
KCL2 230244Z 13006KT 20/15 A30 RMK A01 T02030147  RH  070%=      5-min Rain = 0
KCL2 230245Z 12008KT 20/15 A30 RMK A01 T02030148  RH  070%=      5-min Rain = 0
KCL2 230246Z 13007KT 20/15 A30 RMK A01 T02040147  RH  070%=      5-min Rain = 0
KCL2 230247Z 12006KT 20/15 A30 RMK A01 T02040148  RH  070%=      5-min Rain = 0
KCL2 230248Z 13006KT 20/15 A30 RMK A01 T02040148  RH  070%=      5-min Rain = 0
KCL2 230249Z 13008KT 20/15 A30 RMK A01 T02030148  RH  070%=      5-min Rain = 0
KCL2 230250Z 12006KT 20/15 A30 RMK A01 T02030148  RH  070%=      5-min Rain = 0
KCL2 230251Z 12008KT 20/15 A30 RMK A01 T02040148  RH  070%=      5-min Rain = 0
KCL2 230252Z 13008KT 20/15 A30 RMK A01 T02030148  RH  070%=      5-min Rain = 0
KCL2 230253Z 12009KT 20/15 A30 RMK A01 T02030148  RH  071%=      5-min Rain = 0
KCL2 230254Z 13007KT 20/15 A2999 RMK A01 T02030147  RH  070%=      5-min Rain = 0
KCL2 230255Z 12006KT 20/15 A30 RMK A01 T02040148  RH  070%=      5-min Rain = 0
KCL2 230256Z 13007KT 20/15 A30 RMK A01 T02030148  RH  070%=      5-min Rain = 0
KCL2 230257Z 13006KT 20/15 A30 RMK A01 T02030148  RH  071%=      5-min Rain = 0
KCL2 230258Z 13005KT 20/15 A30 RMK A01 T02030148  RH  071%=      5-min Rain = 0
KCL2 230259Z 12005KT 20/15 A30 RMK A01 T02030148  RH  071%=      5-min Rain = 0
KCL2 230300Z 12006KT 20/15 A30 RMK A01 T02020148  RH  071%=      5-min Rain = 0
KCL2 230301Z 12005KT 20/15 A30 RMK A01 T02020148  RH  071%=      5-min Rain = 0
KCL2 230302Z 12005KT 20/15 A30 RMK A01 T02020148  RH  071%=      5-min Rain = 0
KCL2 230303Z 12006KT 20/15 A30 RMK A01 T02010148  RH  071%=      5-min Rain = 0
KCL2 230304Z 13007KT 20/15 A30 RMK A01 T02010148  RH  072%=      5-min Rain = 0
KCL2 230305Z 13005KT 20/15 A30 RMK A01 T02010148  RH  072%=      5-min Rain = 0
KCL2 230306Z 13005KT 20/15 A30 RMK A01 T02010149  RH  072%=      5-min Rain = 0
KCL2 230307Z 13005KT 20/15 A30 RMK A01 T02000149  RH  072%=      5-min Rain = 0
KCL2 230308Z 12005KT 20/15 A30 RMK A01 T02000149  RH  072%=      5-min Rain = 0
KCL2 230309Z 12006KT 20/15 A30 RMK A01 T02000148  RH  072%=      5-min Rain = 0
KCL2 230310Z 12005KT 20/15 A30 RMK A01 T02000148  RH  072%=      5-min Rain = 0
KCL2 230311Z 12006KT 20/15 A30 RMK A01 T02000149  RH  072%=      5-min Rain = 0
KCL2 230312Z 12005KT 20/15 A3001 RMK A01 T02000149  RH  072%=      5-min Rain = 0
KCL2 230313Z 13005KT 20/15 A3001 RMK A01 T02000148  RH  072%=      5-min Rain = 0
KCL2 230314Z 13006KT 20/15 A3001 RMK A01 T02000148  RH  072%=      5-min Rain = 0
KCL2 230315Z 13007KT 20/15 A3001 RMK A01 T02000148  RH  072%=      5-min Rain = 0
KCL2 230316Z 13006KT 20/15 A3001 RMK A01 T02000148  RH  072%=      5-min Rain = 0
KCL2 230317Z 13007KT 20/15 A3001 RMK A01 T02010148  RH  072%=      5-min Rain = 0
KCL2 230318Z 14007KT 20/15 A3001 RMK A01 T02010148  RH  072%=      5-min Rain = 0
KCL2 230319Z 14006KT 20/15 A3001 RMK A01 T02020148  RH  071%=      5-min Rain = 0
KCL2 230320Z 14007KT 20/15 A3001 RMK A01 T02020148  RH  071%=      5-min Rain = 0
KCL2 230321Z 14008KT 20/15 A3001 RMK A01 T02020149  RH  072%=      5-min Rain = 0
KCL2 230322Z 13008KT 20/15 A3001 RMK A01 T02020148  RH  071%=      5-min Rain = 0
KCL2 230323Z 13008KT 20/15 A3001 RMK A01 T02020148  RH  071%=      5-min Rain = 0
KCL2 230324Z 14009KT 20/15 A3001 RMK A01 T02030148  RH  071%=      5-min Rain = 0
KCL2 230325Z 13010KT 20/15 A30 RMK A01 T02030148  RH  071%=      5-min Rain = 0
KCL2 230326Z 13009KT 20/15 A30 RMK A01 T02030148  RH  071%=      5-min Rain = 0
KCL2 230327Z 13008KT 20/15 A30 RMK A01 T02030148  RH  071%=      5-min Rain = 0
KCL2 230328Z 13010KT 20/15 A30 RMK A01 T02030148  RH  071%=      5-min Rain = 0
KCL2 230329Z 13008KT 20/15 A30 RMK A01 T02030148  RH  071%=      5-min Rain = 0
KCL2 230330Z 13008KT 20/15 A30 RMK A01 T02030148  RH  071%=      5-min Rain = 0
KCL2 230331Z 13009KT 20/15 A30 RMK A01 T02030149  RH  071%=      5-min Rain = 0
KCL2 230332Z 13009KT 20/15 A30 RMK A01 T02020149  RH  071%=      5-min Rain = 0
KCL2 230333Z 13008KT 20/15 A30 RMK A01 T02020149  RH  071%=      5-min Rain = 0
KCL2 230334Z 13008KT 20/15 A30 RMK A01 T02030148  RH  071%=      5-min Rain = 0
KCL2 230335Z 14008KT 20/15 A30 RMK A01 T02030148  RH  071%=      5-min Rain = 0
KCL2 230336Z 13008KT 20/15 A30 RMK A01 T02030149  RH  071%=      5-min Rain = 0
KCL2 230337Z 13008KT 20/15 A30 RMK A01 T02030149  RH  071%=      5-min Rain = 0
KCL2 230338Z 14009KT 20/15 A30 RMK A01 T02030149  RH  071%=      5-min Rain = 0
KCL2 230339Z 13010KT 20/15 A30 RMK A01 T02030149  RH  071%=      5-min Rain = 0
KCL2 230340Z 13009KT 20/15 A30 RMK A01 T02030148  RH  071%=      5-min Rain = 0
KCL2 230341Z 13008KT 20/15 A30 RMK A01 T02030149  RH  071%=      5-min Rain = 0
KCL2 230342Z 13008KT 20/15 A30 RMK A01 T02030149  RH  071%=      5-min Rain = 0
KCL2 230343Z 13008KT 20/15 A30 RMK A01 T02030149  RH  071%=      5-min Rain = 0
KCL2 230344Z 13007KT 20/15 A30 RMK A01 T02030149  RH  071%=      5-min Rain = 0
KCL2 230345Z 13007KT 20/15 A3001 RMK A01 T02030149  RH  071%=      5-min Rain = 0
KCL2 230346Z 13008KT 20/15 A3001 RMK A01 T02030149  RH  071%=      5-min Rain = 0
KCL2 230347Z 13007KT 20/15 A3001 RMK A01 T02030149  RH  071%=      5-min Rain = 0
KCL2 230348Z 14009KT 20/15 A3001 RMK A01 T02040149  RH  071%=      5-min Rain = 0
KCL2 230349Z 14009KT 20/15 A3001 RMK A01 T02040149  RH  071%=      5-min Rain = 0
KCL2 230350Z 13007KT 20/15 A3001 RMK A01 T02040149  RH  070%=      5-min Rain = 0
KCL2 230351Z 14008KT 20/15 A3001 RMK A01 T02040149  RH  071%=      5-min Rain = 0
KCL2 230352Z 13009KT 21/15 A3001 RMK A01 T02050150  RH  071%=      5-min Rain = 0
KCL2 230353Z 14010KT 20/15 A3001 RMK A01 T02040149  RH  071%=      5-min Rain = 0
KCL2 230354Z 13009KT 21/15 A3001 RMK A01 T02050149  RH  070%=      5-min Rain = 0
KCL2 230355Z 13008KT 21/15 A3001 RMK A01 T02050149  RH  070%=      5-min Rain = 0
KCL2 230356Z 14010KT 21/15 A3001 RMK A01 T02050149  RH  070%=      5-min Rain = 0
KCL2 230357Z 14009KT 21/15 A3001 RMK A01 T02050149  RH  070%=      5-min Rain = 0
KCL2 230358Z 14008KT 21/15 A3001 RMK A01 T02050149  RH  070%=      5-min Rain = 0
KCL2 230359Z 13009KT 21/15 A3001 RMK A01 T02050149  RH  070%=      5-min Rain = 0
KCL2 230400Z 13008KT 21/15 A3001 RMK A01 T02050150  RH  070%=      5-min Rain = 0
KCL2 230401Z 13009KT 21/15 A3001 RMK A01 T02050150  RH  071%=      5-min Rain = 0
KCL2 230402Z 12008G13KT 21/15 A30 RMK A01 T02050150  RH  071%=      5-min Rain = 0
KCL2 230403Z 14007KT 21/15 A3001 RMK A01 T02050149  RH  071%=      5-min Rain = 0
KCL2 230404Z 13007KT 21/15 A3001 RMK A01 T02050150  RH  071%=      5-min Rain = 0
KCL2 230405Z 14006KT 20/15 A3001 RMK A01 T02040150  RH  071%=      5-min Rain = 0
KCL2 230406Z 14007KT 20/15 A3001 RMK A01 T02040150  RH  071%=      5-min Rain = 0
KCL2 230407Z 14008KT 20/15 A3001 RMK A01 T02040150  RH  071%=      5-min Rain = 0
KCL2 230408Z 14009KT 20/15 A3001 RMK A01 T02040150  RH  071%=      5-min Rain = 0
KCL2 230409Z 13009KT 21/15 A3001 RMK A01 T02050150  RH  071%=      5-min Rain = 0
KCL2 230410Z 13009KT 20/15 A3001 RMK A01 T02040149  RH  071%=      5-min Rain = 0
KCL2 230411Z 13010KT 20/15 A30 RMK A01 T02040149  RH  071%=      5-min Rain = 0
KCL2 230412Z 13010KT 21/15 A30 RMK A01 T02050150  RH  071%=      5-min Rain = 0
KCL2 230413Z 13010KT 20/15 A30 RMK A01 T02040150  RH  071%=      5-min Rain = 0
KCL2 230414Z 13009KT 20/15 A30 RMK A01 T02040150  RH  071%=      5-min Rain = 0
KCL2 230415Z 14011KT 20/15 A30 RMK A01 T02040150  RH  071%=      5-min Rain = 0
KCL2 230416Z 14009KT 20/15 A3001 RMK A01 T02040150  RH  071%=      5-min Rain = 0
KCL2 230417Z 15007KT 20/15 A3001 RMK A01 T02040150  RH  071%=      5-min Rain = 0
KCL2 230418Z 15007KT 20/15 A3001 RMK A01 T02040150  RH  071%=      5-min Rain = 0
KCL2 230419Z 14007KT 20/15 A3001 RMK A01 T02040150  RH  071%=      5-min Rain = 0
KCL2 230420Z 13006KT 20/15 A3001 RMK A01 T02040150  RH  071%=      5-min Rain = 0
KCL2 230421Z 13008KT 20/15 A3001 RMK A01 T02040150  RH  071%=      5-min Rain = 0
KCL2 230422Z 14009KT 20/15 A3001 RMK A01 T02040149  RH  071%=      5-min Rain = 0
KCL2 230423Z 13008KT 20/15 A3001 RMK A01 T02040150  RH  071%=      5-min Rain = 0
KCL2 230424Z 13009KT 20/15 A3001 RMK A01 T02040150  RH  071%=      5-min Rain = 0
KCL2 230425Z 13009KT 20/15 A30 RMK A01 T02040150  RH  071%=      5-min Rain = 0
KCL2 230426Z 14008KT 20/15 A30 RMK A01 T02040150  RH  071%=      5-min Rain = 0
KCL2 230427Z 14008KT 20/15 A30 RMK A01 T02030150  RH  071%=      5-min Rain = 0
KCL2 230428Z 13009KT 20/15 A30 RMK A01 T02040150  RH  071%=      5-min Rain = 0
KCL2 230429Z 13012KT 20/15 A30 RMK A01 T02040150  RH  071%=      5-min Rain = 0
KCL2 230430Z 14010KT 20/15 A30 RMK A01 T02030150  RH  071%=      5-min Rain = 0
KCL2 230431Z 14010KT 20/15 A30 RMK A01 T02030150  RH  071%=      5-min Rain = 0
KCL2 230432Z 13010KT 20/15 A30 RMK A01 T02040150  RH  071%=      5-min Rain = 0
KCL2 230433Z 13010KT 20/15 A30 RMK A01 T02030150  RH  072%=      5-min Rain = 0
KCL2 230434Z 13010KT 20/15 A30 RMK A01 T02030150  RH  072%=      5-min Rain = 0
KCL2 230435Z 13011KT 20/15 A30 RMK A01 T02030150  RH  072%=      5-min Rain = 0
KCL2 230436Z 14011KT 20/15 A2999 RMK A01 T02030150  RH  072%=      5-min Rain = 0
KCL2 230437Z 13009KT 20/15 A2999 RMK A01 T02030150  RH  072%=      5-min Rain = 0
KCL2 230438Z 13010KT 20/15 A2999 RMK A01 T02020150  RH  072%=      5-min Rain = 0
KCL2 230439Z 14008G13KT 20/15 A2999 RMK A01 T02020150  RH  072%=      5-min Rain = 0
KCL2 230440Z 14012KT 20/15 A2999 RMK A01 T02020150  RH  072%=      5-min Rain = 0
KCL2 230441Z 14011KT 20/15 A2999 RMK A01 T02020150  RH  072%=      5-min Rain = 0
KCL2 230442Z 14010KT 20/15 A30 RMK A01 T02020150  RH  072%=      5-min Rain = 0
KCL2 230443Z 15010KT 20/15 A30 RMK A01 T02010150  RH  072%=      5-min Rain = 0
KCL2 230444Z 15011KT 20/15 A30 RMK A01 T02020150  RH  072%=      5-min Rain = 0
KCL2 230445Z 15011KT 20/15 A30 RMK A01 T02020150  RH  072%=      5-min Rain = 0
KCL2 230446Z 15008KT 20/15 A30 RMK A01 T02020150  RH  072%=      5-min Rain = 0
KCL2 230447Z 15008KT 20/15 A30 RMK A01 T02010150  RH  072%=      5-min Rain = 0
KCL2 230448Z 14011KT 20/15 A30 RMK A01 T02010150  RH  072%=      5-min Rain = 0
KCL2 230449Z 14009KT 20/15 A30 RMK A01 T02010150  RH  072%=      5-min Rain = 0
KCL2 230450Z 14010KT 20/15 A30 RMK A01 T02010150  RH  072%=      5-min Rain = 0
KCL2 230451Z 14010KT 20/15 A30 RMK A01 T02010150  RH  072%=      5-min Rain = 0
KCL2 230452Z 15011KT 20/15 A30 RMK A01 T02010150  RH  072%=      5-min Rain = 0
KCL2 230453Z 14010KT 20/15 A2999 RMK A01 T02000150  RH  073%=      5-min Rain = 0
KCL2 230454Z 14009KT 20/15 A2999 RMK A01 T02000150  RH  073%=      5-min Rain = 0
KCL2 230455Z 14010KT 20/15 A2999 RMK A01 T02000150  RH  073%=      5-min Rain = 0
KCL2 230456Z 14010KT 20/15 A30 RMK A01 T02000150  RH  073%=      5-min Rain = 0
KCL2 230457Z 15008KT 20/15 A30 RMK A01 T02000150  RH  073%=      5-min Rain = 0
KCL2 230458Z 15008KT 20/15 A30 RMK A01 T02000150  RH  073%=      5-min Rain = 0
KCL2 230459Z 15008KT 20/15 A30 RMK A01 T02000150  RH  073%=      5-min Rain = 0

Page generated in 0.1424 seconds.